Darstellungsparameter: Aktuell verwendete Einstellungen:
Skalierung der Graphiken ... ?
xyx+y,   Skalierungsfaktor:      Skalierung: Modus: x, Faktor: 1
Darstellungszeitraum ... ?
Vom - - bis: - -   Zeitraum: 26.10.2008 - 15.11.2008
Min/Max/Avg-Anzeige ... ?
Zeige MMA aktuell
Zeige MMA Monat
Zeige MMA alles
Zeige --A aktuell
Zeige --A Monat
Zeige --A alles
Keine MMA-Anzeige
MMA:
Average (ber die Originaldaten)
MMA-Basis: 17.04.2019 - 19.05.2019
Quicknavigation für Darstellung... ?
Tage:      1T, 2T, 3T, 5T -1T -2T -3T -5T +1T +2T +3T +5T
Wochen: 1W, 2W, 3W -1W -2W -3W +1W +2W +3W
Monate: 1M, 3M, 6M -1M -3M -6M +1M +3M +6M
Jahre:    1J, 3J, 5J, 10J -1J -3J -5J -10J +1J +3J +5J +10J
Nutze für die Darstellung ... ?
Originaldaten oder Mittelwerte auf ...
Stundenbasis Tagesbasis Wochenbasis
Monatsbasis Jahresbasis      Datenbasis: Original-Daten
Darstellen als:
Statistik (Auto) Statistik J:M      Darstellung:
Zur Graphik,    zurück zur Übersicht aller Sensoren.
 
Tabellarische Datenbersicht: ?
 
Sensor: Nr:Datum:Temp:Abs-Feuchte:Windchill:Wind:
Aussen-T/F 1 26-10-2008 00:11:02 7.6 C 7.01 g/m*3 7.6 C 0 km/h
2 26-10-2008 00:36:02 7.4 C 6.92 g/m*3 7.4 C 0 km/h
3 26-10-2008 01:01:02 7.1 C 6.79 g/m*3 7.1 C 0 km/h
4 26-10-2008 01:26:02 7 C 6.82 g/m*3 7 C 0 km/h
5 26-10-2008 01:51:02 6.8 C 6.81 g/m*3 6.8 C 0 km/h
6 26-10-2008 02:16:02 6.6 C 6.72 g/m*3 6.6 C 0 km/h
7 26-10-2008 02:41:03 6.4 C 6.63 g/m*3 6.4 C 0 km/h
8 26-10-2008 03:06:03 6.2 C 6.62 g/m*3 6.2 C 0 km/h
9 26-10-2008 03:31:03 6 C 6.53 g/m*3 6 C 0 km/h
10 26-10-2008 03:56:03 5.8 C 6.52 g/m*3 5.8 C 0 km/h
11 26-10-2008 04:11:03 5.8 C 6.59 g/m*3 5.8 C 0 km/h
12 26-10-2008 04:21:03 5.7 C 6.48 g/m*3 5.7 C 0 km/h
13 26-10-2008 04:36:03 5.7 C 6.55 g/m*3 5.7 C 0 km/h
14 26-10-2008 04:46:03 5.9 C 6.63 g/m*3 5.9 C 0 km/h
15 26-10-2008 05:01:03 5.8 C 6.66 g/m*3 5.8 C 0 km/h
16 26-10-2008 05:26:03 5.6 C 6.5 g/m*3 5.6 C 0 km/h
17 26-10-2008 05:51:03 5.4 C 6.42 g/m*3 5.4 C 0 km/h
18 26-10-2008 06:16:03 5.7 C 6.62 g/m*3 5.7 C 0 km/h
19 26-10-2008 06:41:03 6.4 C 6.93 g/m*3 6.4 C 0 km/h
20 26-10-2008 07:06:03 6.8 C 6.96 g/m*3 6.8 C 0 km/h
21 26-10-2008 07:31:03 6.8 C 6.81 g/m*3 6.8 C 0 km/h
22 26-10-2008 07:56:03 6.7 C 6.76 g/m*3 6.7 C 0 km/h
23 26-10-2008 08:21:03 6.5 C 6.67 g/m*3 6.5 C 0 km/h
24 26-10-2008 08:46:03 6.6 C 6.72 g/m*3 6.6 C 0 km/h
25 26-10-2008 09:11:03 7.7 C 7.22 g/m*3 7.7 C 0 km/h
Sensor: Nr:Datum:Temp:Abs-Feuchte:Windchill:Wind:
Aussen-T/F 26 26-10-2008 09:36:03 8.5 C 7.43 g/m*3 8.5 C 0 km/h
27 26-10-2008 10:01:03 9.4 C 7.69 g/m*3 9.4 C 0 km/h
28 26-10-2008 10:26:04 10.9 C 7.16 g/m*3 10.9 C 0 km/h
29 26-10-2008 10:51:04 11.8 C 7.05 g/m*3 11.8 C 0 km/h
30 26-10-2008 11:16:04 12.3 C 6.62 g/m*3 12.3 C 0 km/h
31 26-10-2008 11:41:04 12.7 C 6.57 g/m*3 12.7 C 0 km/h
32 26-10-2008 12:06:04 13.5 C 6.2 g/m*3 13.5 C 0 km/h
33 26-10-2008 12:31:04 13.9 C 6.11 g/m*3 13.9 C 0 km/h
34 26-10-2008 12:56:04 15.6 C 5.59 g/m*3 15.6 C 0 km/h
35 26-10-2008 13:21:04 16.8 C 5.15 g/m*3 16.8 C 0 km/h
36 26-10-2008 13:46:04 16 C 5.04 g/m*3 16 C 0 km/h
37 26-10-2008 14:11:04 15.6 C 4.92 g/m*3 15.6 C 0 km/h
38 26-10-2008 14:36:04 15.2 C 4.8 g/m*3 15.2 C 0 km/h
39 26-10-2008 15:01:04 15.1 C 4.9 g/m*3 15.1 C 0 km/h
40 26-10-2008 15:26:04 15.2 C 4.8 g/m*3 15.2 C 0 km/h
41 26-10-2008 15:51:04 15.2 C 4.93 g/m*3 15.2 C 0 km/h
42 26-10-2008 16:16:04 15.1 C 5.03 g/m*3 15.1 C 0 km/h
43 26-10-2008 16:41:04 14.7 C 5.16 g/m*3 14.7 C 0 km/h
44 26-10-2008 17:06:04 14.3 C 5.28 g/m*3 14.3 C 0 km/h
45 26-10-2008 17:31:04 14.5 C 5.1 g/m*3 14.5 C 0 km/h
46 26-10-2008 17:56:04 14.5 C 5.1 g/m*3 14.5 C 0 km/h
47 26-10-2008 18:21:04 14.5 C 4.97 g/m*3 14.5 C 0 km/h
48 26-10-2008 18:46:05 14.3 C 5.04 g/m*3 14.3 C 0 km/h
49 26-10-2008 19:11:05 14.1 C 5.1 g/m*3 14.1 C 0 km/h
50 26-10-2008 19:36:05 14.1 C 5.1 g/m*3 14.1 C 0 km/h
Sensor: Nr:Datum:Temp:Abs-Feuchte:Windchill:Wind:
Aussen-T/F 51 26-10-2008 20:01:05 14 C 5.31 g/m*3 14 C 0 km/h
52 26-10-2008 20:26:05 13.7 C 5.57 g/m*3 13.7 C 0 km/h
53 26-10-2008 20:51:05 13.7 C 5.92 g/m*3 13.7 C 0 km/h
54 26-10-2008 21:16:05 13.6 C 6 g/m*3 13.6 C 0 km/h
55 26-10-2008 21:41:05 13.6 C 6.36 g/m*3 13.6 C 0 km/h
56 26-10-2008 22:06:05 13.5 C 6.43 g/m*3 13.5 C 0 km/h
57 26-10-2008 22:31:05 13.5 C 6.55 g/m*3 13.5 C 0 km/h
58 26-10-2008 22:56:05 13.4 C 6.63 g/m*3 13.4 C 0 km/h
59 26-10-2008 23:21:05 13.5 C 6.78 g/m*3 13.5 C 0 km/h
60 26-10-2008 23:46:05 13.2 C 6.89 g/m*3 13.2 C 0 km/h
61 27-10-2008 00:11:05 13.2 C 6.89 g/m*3 13.2 C 0 km/h
62 27-10-2008 00:36:05 13.2 C 7 g/m*3 13.2 C 0 km/h
63 27-10-2008 01:01:05 12 C 7.89 g/m*3 12 C 0 km/h
64 27-10-2008 01:26:05 11.4 C 8.31 g/m*3 11.4 C 0 km/h
65 27-10-2008 01:51:05 11 C 8.41 g/m*3 11 C 0 km/h
66 27-10-2008 02:16:05 11 C 8.51 g/m*3 11 C 0 km/h
67 27-10-2008 02:41:05 11.2 C 8.41 g/m*3 11.2 C 0 km/h
68 27-10-2008 03:06:05 11.1 C 8.36 g/m*3 11.1 C 0 km/h
69 27-10-2008 03:31:06 10.9 C 8.55 g/m*3 10.9 C 0 km/h
70 27-10-2008 03:56:06 10.9 C 8.65 g/m*3 10.9 C 0 km/h
71 27-10-2008 04:21:06 10.7 C 8.74 g/m*3 10.7 C 0 km/h
72 27-10-2008 04:46:06 10.6 C 8.78 g/m*3 10.6 C 0 km/h
73 27-10-2008 05:11:06 10.5 C 8.83 g/m*3 10.5 C 0 km/h
74 27-10-2008 05:36:06 10.5 C 8.92 g/m*3 10.5 C 0 km/h
75 27-10-2008 06:01:06 10.4 C 8.87 g/m*3 10.4 C 0 km/h
Sensor: Nr:Datum:Temp:Abs-Feuchte:Windchill:Wind:
Aussen-T/F 76 27-10-2008 06:26:06 10.3 C 8.81 g/m*3 10.3 C 0 km/h
77 27-10-2008 06:51:06 10.2 C 8.76 g/m*3 10.2 C 0 km/h
78 27-10-2008 07:16:06 10.2 C 8.85 g/m*3 10.2 C 0 km/h
79 27-10-2008 07:41:06 10.1 C 8.79 g/m*3 10.1 C 0 km/h
80 27-10-2008 08:06:06 10.1 C 8.79 g/m*3 10.1 C 0 km/h
81 27-10-2008 08:31:06 10.2 C 8.95 g/m*3 10.2 C 0 km/h
82 27-10-2008 08:56:06 10.3 C 9 g/m*3 10.3 C 0 km/h
83 27-10-2008 09:21:06 10.4 C 9.06 g/m*3 10.4 C 0 km/h
84 27-10-2008 09:46:06 10.4 C 9.06 g/m*3 10.4 C 0 km/h
85 27-10-2008 10:11:06 10.4 C 9.06 g/m*3 10.4 C 0 km/h
86 27-10-2008 10:36:06 10.6 C 9.17 g/m*3 10.6 C 0 km/h
87 27-10-2008 11:01:06 9.5 C 8.56 g/m*3 9.5 C 0 km/h
88 27-10-2008 11:26:06 9.5 C 8.56 g/m*3 9.5 C 0 km/h
89 27-10-2008 11:51:07 10.1 C 8.79 g/m*3 10.1 C 0 km/h
90 27-10-2008 12:16:07 10.2 C 8.85 g/m*3 10.2 C 0 km/h
91 27-10-2008 12:41:07 10.5 C 9.02 g/m*3 10.5 C 0 km/h
92 27-10-2008 13:06:07 10.4 C 8.67 g/m*3 10.4 C 0 km/h
93 27-10-2008 13:31:07 10.4 C 8.58 g/m*3 10.4 C 0 km/h
94 27-10-2008 13:56:07 10.7 C 8.15 g/m*3 10.7 C 0 km/h
95 27-10-2008 14:21:07 11.9 C 8.37 g/m*3 11.9 C 0 km/h
96 27-10-2008 14:46:07 12 C 7.99 g/m*3 12 C 0 km/h
97 27-10-2008 15:11:07 14 C 8.81 g/m*3 14 C 0 km/h
98 27-10-2008 15:36:07 13.5 C 7.49 g/m*3 13.5 C 0 km/h
99 27-10-2008 16:01:07 13.4 C 7.32 g/m*3 13.4 C 0 km/h
100 27-10-2008 16:26:07 11.5 C 7.13 g/m*3 11.5 C 0 km/h
Sensor: Nr:Datum:Temp:Abs-Feuchte:Windchill:Wind:
Aussen-T/F 101 27-10-2008 16:51:07 11.2 C 7.3 g/m*3 11.2 C 0 km/h
102 27-10-2008 17:16:07 10.7 C 7.46 g/m*3 10.7 C 0 km/h
103 27-10-2008 17:41:07 10.2 C 6.66 g/m*3 10.2 C 0 km/h
104 27-10-2008 18:06:07 9.8 C 6.77 g/m*3 9.8 C 0 km/h
105 27-10-2008 18:31:07 9.9 C 6.82 g/m*3 9.9 C 0 km/h
106 27-10-2008 18:56:07 9.5 C 6.92 g/m*3 9.5 C 0 km/h
107 27-10-2008 19:21:07 8.8 C 6.88 g/m*3 8.8 C 0 km/h
108 27-10-2008 19:46:07 9.1 C 7.01 g/m*3 9.1 C 0 km/h
109 27-10-2008 20:11:08 8.8 C 7.05 g/m*3 8.8 C 0 km/h
110 27-10-2008 20:36:08 8.4 C 6.87 g/m*3 8.4 C 0 km/h
111 27-10-2008 21:01:08 8.1 C 6.82 g/m*3 8.1 C 0 km/h
112 27-10-2008 21:26:08 7.9 C 6.82 g/m*3 7.9 C 0 km/h
113 27-10-2008 21:51:08 7.1 C 6.55 g/m*3 7.1 C 0 km/h
114 27-10-2008 22:16:08 7.3 C 6.79 g/m*3 7.3 C 0 km/h
115 27-10-2008 22:41:08 7.2 C 6.67 g/m*3 7.2 C 0 km/h
116 27-10-2008 23:06:08 6.8 C 6.65 g/m*3 6.8 C 0 km/h
117 27-10-2008 23:31:08 6.3 C 6.51 g/m*3 6.3 C 0 km/h
118 27-10-2008 23:56:08 6.1 C 6.5 g/m*3 6.1 C 0 km/h
119 28-10-2008 00:21:08 5.8 C 6.45 g/m*3 5.8 C 0 km/h
120 28-10-2008 00:46:08 6.1 C 6.58 g/m*3 6.1 C 0 km/h
121 28-10-2008 01:11:08 6.1 C 6.65 g/m*3 6.1 C 0 km/h
122 28-10-2008 01:36:08 5.8 C 6.52 g/m*3 5.8 C 0 km/h
123 28-10-2008 02:01:08 6 C 6.6 g/m*3 6 C 0 km/h
124 28-10-2008 02:26:08 6.3 C 6.81 g/m*3 6.3 C 0 km/h
125 28-10-2008 02:51:08 6.4 C 6.78 g/m*3 6.4 C 0 km/h
Sensor: Nr:Datum:Temp:Abs-Feuchte:Windchill:Wind:
Aussen-T/F 126 28-10-2008 03:16:08 6.4 C 6.78 g/m*3 6.4 C 0 km/h
127 28-10-2008 03:41:08 6.6 C 6.87 g/m*3 6.6 C 0 km/h
128 28-10-2008 04:06:08 6.5 C 6.82 g/m*3 6.5 C 0 km/h
129 28-10-2008 04:31:08 6.5 C 6.82 g/m*3 6.5 C 0 km/h
130 28-10-2008 04:56:09 6.5 C 6.9 g/m*3 6.5 C 0 km/h
131 28-10-2008 05:21:09 6.5 C 6.9 g/m*3 6.5 C 0 km/h
132 28-10-2008 05:46:09 6.4 C 6.93 g/m*3 6.4 C 0 km/h
133 28-10-2008 06:11:09 6.3 C 6.88 g/m*3 6.3 C 0 km/h
134 28-10-2008 06:36:09 6.5 C 6.97 g/m*3 6.5 C 0 km/h
135 28-10-2008 07:01:09 6.2 C 6.84 g/m*3 6.2 C 0 km/h
136 28-10-2008 07:26:09 6 C 6.75 g/m*3 6 C 0 km/h
137 28-10-2008 07:51:09 6 C 6.75 g/m*3 6 C 0 km/h
138 28-10-2008 08:16:09 6.2 C 6.91 g/m*3 6.2 C 0 km/h
139 28-10-2008 08:41:09 6.6 C 7.1 g/m*3 6.6 C 0 km/h
140 28-10-2008 09:06:09 7 C 7.21 g/m*3 7 C 0 km/h
141 28-10-2008 09:31:09 7.3 C 7.19 g/m*3 7.3 C 0 km/h
142 28-10-2008 09:56:09 7.8 C 6.94 g/m*3 7.8 C 0 km/h
143 28-10-2008 10:21:09 7.9 C 6.65 g/m*3 7.9 C 0 km/h
144 28-10-2008 10:46:09 8.5 C 6.92 g/m*3 8.5 C 0 km/h
145 28-10-2008 11:11:09 9.2 C 6.88 g/m*3 9.2 C 0 km/h
146 28-10-2008 11:36:09 10.1 C 6.71 g/m*3 10.1 C 0 km/h
147 28-10-2008 12:01:09 10.5 C 6.3 g/m*3 10.5 C 0 km/h
148 28-10-2008 12:26:09 10.5 C 5.82 g/m*3 10.5 C 0 km/h
149 28-10-2008 12:51:09 10.3 C 4.98 g/m*3 10.3 C 0 km/h
150 28-10-2008 13:16:10 10.6 C 5.37 g/m*3 10.6 C 0 km/h
Sensor: Nr:Datum:Temp:Abs-Feuchte:Windchill:Wind:
Aussen-T/F 151 28-10-2008 13:41:10 10.5 C 5.43 g/m*3 10.5 C 0 km/h
152 28-10-2008 14:06:10 10.1 C 5.3 g/m*3 10.1 C 0 km/h
153 28-10-2008 14:31:10 10.2 C 5.33 g/m*3 10.2 C 0 km/h
154 28-10-2008 14:56:10 10.4 C 5.4 g/m*3 10.4 C 0 km/h
155 28-10-2008 15:21:10 10.2 C 5.23 g/m*3 10.2 C 0 km/h
156 28-10-2008 15:46:10 9.8 C 5.38 g/m*3 9.8 C 0 km/h
157 28-10-2008 16:11:10 9 C 5.73 g/m*3 9 C 0 km/h
158 28-10-2008 16:36:10 8.4 C 6.19 g/m*3 8.4 C 0 km/h
159 28-10-2008 17:01:10 7.8 C 6.12 g/m*3 7.8 C 0 km/h
160 28-10-2008 17:26:10 7 C 5.97 g/m*3 7 C 0 km/h
161 28-10-2008 17:51:10 6.5 C 5.92 g/m*3 6.5 C 0 km/h
162 28-10-2008 18:16:10 6.2 C 5.96 g/m*3 6.2 C 0 km/h
163 28-10-2008 18:41:10 5.5 C 5.76 g/m*3 5.5 C 0 km/h
164 28-10-2008 19:06:10 5.4 C 5.72 g/m*3 5.4 C 0 km/h
165 28-10-2008 19:31:10 5.2 C 5.78 g/m*3 5.2 C 0 km/h
166 28-10-2008 19:56:10 5 C 5.71 g/m*3 5 C 0 km/h
167 28-10-2008 20:21:10 4.9 C 5.81 g/m*3 4.9 C 0 km/h
168 28-10-2008 20:46:10 4.7 C 5.73 g/m*3 4.7 C 0 km/h
169 28-10-2008 21:11:10 4.4 C 5.62 g/m*3 4.4 C 0 km/h
170 28-10-2008 21:36:10 4.2 C 5.61 g/m*3 4.2 C 0 km/h
171 28-10-2008 22:01:11 3.9 C 5.49 g/m*3 3.9 C 0 km/h
172 28-10-2008 22:26:11 3.8 C 5.58 g/m*3 3.8 C 0 km/h
173 28-10-2008 22:51:11 3.6 C 5.51 g/m*3 3.6 C 0 km/h
174 28-10-2008 23:16:11 3.4 C 5.44 g/m*3 3.4 C 0 km/h
175 28-10-2008 23:41:11 3.2 C 5.36 g/m*3 3.2 C 0 km/h
Sensor: Nr:Datum:Temp:Abs-Feuchte:Windchill:Wind:
Aussen-T/F 176 29-10-2008 00:06:11 3.2 C 5.42 g/m*3 3.2 C 0 km/h
177 29-10-2008 00:31:11 3.1 C 5.39 g/m*3 3.1 C 0 km/h
178 29-10-2008 00:56:11 2.8 C 5.34 g/m*3 2.8 C 0 km/h
179 29-10-2008 01:21:11 2.8 C 5.4 g/m*3 2.8 C 0 km/h
180 29-10-2008 01:46:11 2.9 C 5.43 g/m*3 2.9 C 0 km/h
181 29-10-2008 02:11:11 3 C 5.47 g/m*3 3 C 0 km/h
182 29-10-2008 02:36:11 2.9 C 5.49 g/m*3 2.9 C 0 km/h
183 29-10-2008 03:01:11 3.1 C 5.51 g/m*3 3.1 C 0 km/h
184 29-10-2008 03:26:11 3.4 C 5.68 g/m*3 3.4 C 0 km/h
185 29-10-2008 03:51:11 3.6 C 5.76 g/m*3 3.6 C 0 km/h
186 29-10-2008 04:16:11 3.6 C 5.69 g/m*3 3.6 C 0 km/h
187 29-10-2008 04:41:11 3.4 C 5.62 g/m*3 3.4 C 0 km/h
188 29-10-2008 05:06:11 3.5 C 5.66 g/m*3 3.5 C 0 km/h
189 29-10-2008 05:31:11 3.7 C 5.73 g/m*3 3.7 C 0 km/h
190 29-10-2008 05:56:11 3.7 C 5.73 g/m*3 3.7 C 0 km/h
191 29-10-2008 06:21:11 3.7 C 5.73 g/m*3 3.7 C 0 km/h
192 29-10-2008 06:46:12 3.7 C 5.67 g/m*3 3.7 C 0 km/h
193 29-10-2008 07:11:12 3.7 C 5.67 g/m*3 3.7 C 0 km/h
194 29-10-2008 07:36:12 3.6 C 5.63 g/m*3 3.6 C 0 km/h
195 29-10-2008 08:01:12 3.6 C 5.63 g/m*3 3.6 C 0 km/h
196 29-10-2008 08:26:12 3.9 C 5.75 g/m*3 3.9 C 0 km/h
197 29-10-2008 08:51:12 3.9 C 5.68 g/m*3 3.9 C 0 km/h
198 29-10-2008 09:16:12 4.4 C 5.75 g/m*3 4.4 C 0 km/h
199 29-10-2008 09:41:12 4.6 C 5.69 g/m*3 4.6 C 0 km/h
200 29-10-2008 10:06:12 5 C 5.57 g/m*3 5 C 0 km/h
Sensor: Nr:Datum:Temp:Abs-Feuchte:Windchill:Wind:
Aussen-T/F 201 29-10-2008 10:31:12 5.6 C 5.66 g/m*3 5.6 C 0 km/h
202 29-10-2008 10:56:12 5.6 C 5.59 g/m*3 5.6 C 0 km/h
203 29-10-2008 11:21:12 6.5 C 5.77 g/m*3 6.5 C 0 km/h
204 29-10-2008 11:46:12 7.2 C 5.65 g/m*3 7.2 C 0 km/h
205 29-10-2008 12:11:12 7.1 C 5.54 g/m*3 7.1 C 0 km/h
206 29-10-2008 12:36:12 7.5 C 5.76 g/m*3 7.5 C 0 km/h
207 29-10-2008 13:01:12 8 C 5.37 g/m*3 8 C 0 km/h
208 29-10-2008 13:26:12 8.4 C 5.51 g/m*3 8.4 C 0 km/h
209 29-10-2008 13:51:12 9.2 C 5.63 g/m*3 9.2 C 0 km/h
210 29-10-2008 14:16:12 9.1 C 5.41 g/m*3 9.1 C 0 km/h
211 29-10-2008 14:41:12 10.2 C 5.42 g/m*3 10.2 C 0 km/h
212 29-10-2008 15:06:13 10.7 C 5.11 g/m*3 10.7 C 0 km/h
213 29-10-2008 15:31:13 9.8 C 5.1 g/m*3 9.8 C 0 km/h
214 29-10-2008 15:56:13 9.4 C 5.34 g/m*3 9.4 C 0 km/h
215 29-10-2008 16:21:13 8.4 C 5.34 g/m*3 8.4 C 0 km/h
216 29-10-2008 16:46:13 7.9 C 5.5 g/m*3 7.9 C 0 km/h
217 29-10-2008 17:11:13 7.1 C 5.38 g/m*3 7.1 C 0 km/h
218 29-10-2008 17:36:13 6.7 C 5.47 g/m*3 6.7 C 0 km/h
219 29-10-2008 18:01:13 6.4 C 5.59 g/m*3 6.4 C 0 km/h
220 29-10-2008 18:26:13 6.2 C 5.52 g/m*3 6.2 C 0 km/h
221 29-10-2008 18:51:13 6 C 5.52 g/m*3 6 C 0 km/h
222 29-10-2008 19:16:13 5.9 C 5.62 g/m*3 5.9 C 0 km/h
223 29-10-2008 19:41:13 5.9 C 5.7 g/m*3 5.9 C 0 km/h
224 29-10-2008 20:06:13 5.8 C 5.66 g/m*3 5.8 C 0 km/h
225 29-10-2008 20:31:13 5.4 C 5.58 g/m*3 5.4 C 0 km/h
Sensor: Nr:Datum:Temp:Abs-Feuchte:Windchill:Wind:
Aussen-T/F 226 29-10-2008 20:56:13 5.1 C 5.54 g/m*3 5.1 C 0 km/h
227 29-10-2008 21:21:13 5.3 C 5.54 g/m*3 5.3 C 0 km/h
228 29-10-2008 21:46:13 5.1 C 5.47 g/m*3 5.1 C 0 km/h
229 29-10-2008 22:11:13 5.2 C 5.51 g/m*3 5.2 C 0 km/h
230 29-10-2008 22:36:13 5.2 C 5.58 g/m*3 5.2 C 0 km/h
231 29-10-2008 23:01:13 5.2 C 5.65 g/m*3 5.2 C 0 km/h
232 29-10-2008 23:26:13 5.2 C 5.65 g/m*3 5.2 C 0 km/h
233 29-10-2008 23:51:14 5 C 5.64 g/m*3 5 C 0 km/h
234 30-10-2008 00:16:14 5 C 5.71 g/m*3 5 C 0 km/h
235 30-10-2008 00:41:14 4.9 C 5.74 g/m*3 4.9 C 0 km/h
236 30-10-2008 01:06:14 4.7 C 5.73 g/m*3 4.7 C 0 km/h
237 30-10-2008 01:31:14 4.8 C 5.83 g/m*3 4.8 C 0 km/h
238 30-10-2008 01:56:14 4.8 C 5.83 g/m*3 4.8 C 0 km/h
239 30-10-2008 02:21:14 5 C 5.84 g/m*3 5 C 0 km/h
240 30-10-2008 02:46:14 4.8 C 5.83 g/m*3 4.8 C 0 km/h
241 30-10-2008 03:11:14 4.8 C 5.9 g/m*3 4.8 C 0 km/h
242 30-10-2008 03:36:14 4.7 C 5.93 g/m*3 4.7 C 0 km/h
243 30-10-2008 04:01:14 4.7 C 6 g/m*3 4.7 C 0 km/h
244 30-10-2008 04:26:14 4.5 C 5.98 g/m*3 4.5 C 0 km/h
245 30-10-2008 04:51:14 4.5 C 5.98 g/m*3 4.5 C 0 km/h
246 30-10-2008 05:16:14 4.5 C 6.05 g/m*3 4.5 C 0 km/h
247 30-10-2008 05:41:14 4.5 C 6.05 g/m*3 4.5 C 0 km/h
248 30-10-2008 06:06:14 4.2 C 5.93 g/m*3 4.2 C 0 km/h
249 30-10-2008 06:31:14 4.2 C 5.93 g/m*3 4.2 C 0 km/h
250 30-10-2008 06:56:14 4.1 C 5.89 g/m*3 4.1 C 0 km/h
Sensor: Nr:Datum:Temp:Abs-Feuchte:Windchill:Wind:
Aussen-T/F 251 30-10-2008 07:21:14 3.9 C 5.87 g/m*3 3.9 C 0 km/h
252 30-10-2008 07:46:14 3.9 C 5.94 g/m*3 3.9 C 0 km/h
253 30-10-2008 08:11:15 4 C 5.98 g/m*3 4 C 0 km/h
254 30-10-2008 08:36:15 4.2 C 6.06 g/m*3 4.2 C 0 km/h
255 30-10-2008 09:01:15 4.6 C 6.22 g/m*3 4.6 C 0 km/h
256 30-10-2008 09:26:15 4.8 C 6.3 g/m*3 4.8 C 0 km/h
257 30-10-2008 09:51:15 4.8 C 6.24 g/m*3 4.8 C 0 km/h
258 30-10-2008 10:16:15 4.7 C 6 g/m*3 4.7 C 0 km/h
259 30-10-2008 10:41:15 4.7 C 5.93 g/m*3 4.7 C 0 km/h
260 30-10-2008 11:06:15 5.1 C 6.02 g/m*3 5.1 C 0 km/h
261 30-10-2008 11:31:15 5.3 C 6.1 g/m*3 5.3 C 0 km/h
262 30-10-2008 11:56:15 5.8 C 6.23 g/m*3 5.8 C 0 km/h
263 30-10-2008 12:21:15 5.7 C 6.05 g/m*3 5.7 C 0 km/h
264 30-10-2008 12:46:15 5.6 C 6.08 g/m*3 5.6 C 0 km/h
265 30-10-2008 13:11:15 5.7 C 6.12 g/m*3 5.7 C 0 km/h
266 30-10-2008 13:36:15 5.3 C 5.82 g/m*3 5.3 C 0 km/h
267 30-10-2008 14:01:15 5.7 C 6.05 g/m*3 5.7 C 0 km/h
268 30-10-2008 14:26:15 5.6 C 6.08 g/m*3 5.6 C 0 km/h
269 30-10-2008 14:51:15 5.4 C 6 g/m*3 5.4 C 0 km/h
270 30-10-2008 15:16:15 5.8 C 6.16 g/m*3 5.8 C 0 km/h
271 30-10-2008 15:41:15 5.7 C 6.05 g/m*3 5.7 C 0 km/h
272 30-10-2008 16:06:15 5.7 C 6.12 g/m*3 5.7 C 0 km/h
273 30-10-2008 16:31:15 5.7 C 6.19 g/m*3 5.7 C 0 km/h
274 30-10-2008 16:56:16 5.4 C 6.07 g/m*3 5.4 C 0 km/h
275 30-10-2008 17:21:16 4.8 C 5.9 g/m*3 4.8 C 0 km/h
Sensor: Nr:Datum:Temp:Abs-Feuchte:Windchill:Wind:
Aussen-T/F 276 30-10-2008 17:46:16 4.7 C 5.86 g/m*3 4.7 C 0 km/h
277 30-10-2008 18:11:16 4.8 C 5.97 g/m*3 4.8 C 0 km/h
278 30-10-2008 18:36:16 4.6 C 5.89 g/m*3 4.6 C 0 km/h
279 30-10-2008 19:01:16 4.6 C 6.02 g/m*3 4.6 C 0 km/h
280 30-10-2008 19:26:16 4.6 C 6.02 g/m*3 4.6 C 0 km/h
281 30-10-2008 19:51:16 4.6 C 6.09 g/m*3 4.6 C 0 km/h
282 30-10-2008 20:16:16 4.4 C 6.01 g/m*3 4.4 C 0 km/h
283 30-10-2008 20:41:16 4.5 C 6.11 g/m*3 4.5 C 0 km/h
284 30-10-2008 21:06:16 4.4 C 6.07 g/m*3 4.4 C 0 km/h
285 30-10-2008 21:31:16 4.3 C 6.03 g/m*3 4.3 C 0 km/h
286 30-10-2008 21:56:16 4.3 C 6.03 g/m*3 4.3 C 0 km/h
287 30-10-2008 22:21:16 4.3 C 6.1 g/m*3 4.3 C 0 km/h
288 30-10-2008 22:46:16 4.3 C 6.1 g/m*3 4.3 C 0 km/h
289 30-10-2008 23:11:16 4.1 C 6.02 g/m*3 4.1 C 0 km/h
290 30-10-2008 23:36:16 3.9 C 5.94 g/m*3 3.9 C 0 km/h
291 31-10-2008 00:01:16 3.8 C 5.96 g/m*3 3.8 C 0 km/h
292 31-10-2008 00:26:16 3.7 C 5.92 g/m*3 3.7 C 0 km/h
293 31-10-2008 00:51:16 3.4 C 5.8 g/m*3 3.4 C 0 km/h
294 31-10-2008 01:16:16 3.2 C 5.72 g/m*3 3.2 C 0 km/h
295 31-10-2008 01:41:17 2.8 C 5.57 g/m*3 2.8 C 0 km/h
296 31-10-2008 02:06:17 2.7 C 5.54 g/m*3 2.7 C 0 km/h
297 31-10-2008 02:31:17 2.9 C 5.61 g/m*3 2.9 C 0 km/h
298 31-10-2008 02:56:17 3.2 C 5.72 g/m*3 3.2 C 0 km/h
299 31-10-2008 03:21:17 3.1 C 5.69 g/m*3 3.1 C 0 km/h
300 31-10-2008 03:46:17 3 C 5.65 g/m*3 3 C 0 km/h
Sensor: Nr:Datum:Temp:Abs-Feuchte:Windchill:Wind:
Aussen-T/F 301 31-10-2008 04:11:17 3.1 C 5.69 g/m*3 3.1 C 0 km/h
302 31-10-2008 04:36:17 3.2 C 5.72 g/m*3 3.2 C 0 km/h
303 31-10-2008 05:01:17 3.3 C 5.76 g/m*3 3.3 C 0 km/h
304 31-10-2008 05:26:17 3.6 C 5.88 g/m*3 3.6 C 0 km/h
305 31-10-2008 05:51:17 3.7 C 5.92 g/m*3 3.7 C 0 km/h
306 31-10-2008 06:16:17 3.8 C 5.96 g/m*3 3.8 C 0 km/h
307 31-10-2008 06:41:17 4 C 6.04 g/m*3 4 C 0 km/h
308 31-10-2008 07:06:17 4 C 6.04 g/m*3 4 C 0 km/h
309 31-10-2008 07:31:17 4 C 6.04 g/m*3 4 C 0 km/h
310 31-10-2008 07:56:17 4.1 C 6.08 g/m*3 4.1 C 0 km/h
311 31-10-2008 08:21:17 4.3 C 6.16 g/m*3 4.3 C 0 km/h
312 31-10-2008 08:46:17 4.5 C 6.24 g/m*3 4.5 C 0 km/h
313 31-10-2008 09:11:17 4.9 C 6.41 g/m*3 4.9 C 0 km/h
314 31-10-2008 09:36:17 5.4 C 6.63 g/m*3 5.4 C 0 km/h
315 31-10-2008 10:01:17 5.8 C 6.81 g/m*3 5.8 C 0 km/h
316 31-10-2008 10:26:18 6.3 C 6.74 g/m*3 6.3 C 0 km/h
317 31-10-2008 10:51:18 6.5 C 6.6 g/m*3 6.5 C 0 km/h
318 31-10-2008 11:16:18 7.1 C 6.55 g/m*3 7.1 C 0 km/h
319 31-10-2008 11:41:18 7 C 6.51 g/m*3 7 C 0 km/h
320 31-10-2008 12:06:18 7 C 6.66 g/m*3 7 C 0 km/h
321 31-10-2008 12:31:18 7.8 C 7.02 g/m*3 7.8 C 0 km/h
322 31-10-2008 12:56:18 8 C 6.7 g/m*3 8 C 0 km/h
323 31-10-2008 13:21:18 8 C 6.7 g/m*3 8 C 0 km/h
324 31-10-2008 13:46:18 8.8 C 6.7 g/m*3 8.8 C 0 km/h
325 31-10-2008 14:11:18 9.5 C 6.74 g/m*3 9.5 C 0 km/h
Sensor: Nr:Datum:Temp:Abs-Feuchte:Windchill:Wind:
Aussen-T/F 326 31-10-2008 14:36:18 10 C 6.77 g/m*3 10 C 0 km/h
327 31-10-2008 15:01:18 11.2 C 6.99 g/m*3 11.2 C 0 km/h
328 31-10-2008 15:26:18 11.1 C 6.35 g/m*3 11.1 C 0 km/h
329 31-10-2008 15:51:18 10.2 C 6.38 g/m*3 10.2 C 0 km/h
330 31-10-2008 16:16:18 9.6 C 6.5 g/m*3 9.6 C 0 km/h
331 31-10-2008 16:41:18 8.9 C 6.48 g/m*3 8.9 C 0 km/h
332 31-10-2008 17:06:18 8.4 C 6.53 g/m*3 8.4 C 0 km/h
333 31-10-2008 17:31:18 8.1 C 6.32 g/m*3 8.1 C 0 km/h
334 31-10-2008 17:56:18 7.9 C 6.32 g/m*3 7.9 C 0 km/h
335 31-10-2008 18:21:18 7.3 C 6.32 g/m*3 7.3 C 0 km/h
336 31-10-2008 18:46:19 6.8 C 6.42 g/m*3 6.8 C 0 km/h
337 31-10-2008 19:11:19 7 C 6.51 g/m*3 7 C 0 km/h
338 31-10-2008 19:36:19 6.8 C 6.5 g/m*3 6.8 C 0 km/h
339 31-10-2008 20:01:19 6.7 C 6.53 g/m*3 6.7 C 0 km/h
340 31-10-2008 20:26:19 6.5 C 6.52 g/m*3 6.5 C 0 km/h
341 31-10-2008 20:51:19 6.4 C 6.56 g/m*3 6.4 C 0 km/h
342 31-10-2008 21:16:19 6.2 C 6.47 g/m*3 6.2 C 0 km/h
343 31-10-2008 21:41:19 6.2 C 6.55 g/m*3 6.2 C 0 km/h
344 31-10-2008 22:06:19 6.2 C 6.55 g/m*3 6.2 C 0 km/h
345 31-10-2008 22:31:19 6.2 C 6.55 g/m*3 6.2 C 0 km/h
346 31-10-2008 22:56:19 6.3 C 6.66 g/m*3 6.3 C 0 km/h
347 31-10-2008 23:21:19 6.5 C 6.75 g/m*3 6.5 C 0 km/h
348 31-10-2008 23:46:19 6.5 C 6.67 g/m*3 6.5 C 0 km/h
349 01-11-2008 00:11:19 6.4 C 6.63 g/m*3 6.4 C 0 km/h
350 01-11-2008 00:36:19 6.3 C 6.66 g/m*3 6.3 C 0 km/h
Sensor: Nr:Datum:Temp:Abs-Feuchte:Windchill:Wind:
Aussen-T/F 351 01-11-2008 01:01:19 6.4 C 6.71 g/m*3 6.4 C 0 km/h
352 01-11-2008 01:26:19 6.4 C 6.78 g/m*3 6.4 C 0 km/h
353 01-11-2008 01:51:19 6.4 C 6.85 g/m*3 6.4 C 0 km/h
354 01-11-2008 02:16:19 6.3 C 6.81 g/m*3 6.3 C 0 km/h
355 01-11-2008 02:41:19 6.2 C 6.84 g/m*3 6.2 C 0 km/h
356 01-11-2008 03:06:19 6.2 C 6.91 g/m*3 6.2 C 0 km/h
357 01-11-2008 03:31:20 6 C 6.82 g/m*3 6 C 0 km/h
358 01-11-2008 03:56:20 5.9 C 6.85 g/m*3 5.9 C 0 km/h
359 01-11-2008 04:21:20 6 C 6.9 g/m*3 6 C 0 km/h
360 01-11-2008 04:46:20 5.9 C 6.85 g/m*3 5.9 C 0 km/h
361 01-11-2008 05:11:20 6 C 6.9 g/m*3 6 C 0 km/h
362 01-11-2008 05:36:20 6 C 6.9 g/m*3 6 C 0 km/h
363 01-11-2008 06:01:20 5.9 C 6.85 g/m*3 5.9 C 0 km/h
364 01-11-2008 06:26:20 5.9 C 6.85 g/m*3 5.9 C 0 km/h
365 01-11-2008 06:51:20 5.7 C 6.76 g/m*3 5.7 C 0 km/h
366 01-11-2008 07:16:20 5.5 C 6.67 g/m*3 5.5 C 0 km/h
367 01-11-2008 07:41:20 5.3 C 6.58 g/m*3 5.3 C 0 km/h
368 01-11-2008 08:06:20 5.6 C 6.72 g/m*3 5.6 C 0 km/h
369 01-11-2008 08:31:20 5.9 C 6.85 g/m*3 5.9 C 0 km/h
370 01-11-2008 08:56:20 6.5 C 7.12 g/m*3 6.5 C 0 km/h
371 01-11-2008 09:21:20 7.1 C 7.41 g/m*3 7.1 C 0 km/h
372 01-11-2008 09:46:20 7.4 C 7.55 g/m*3 7.4 C 0 km/h
373 01-11-2008 10:11:20 7.9 C 7.56 g/m*3 7.9 C 0 km/h
374 01-11-2008 10:36:20 8.2 C 7.2 g/m*3 8.2 C 0 km/h
375 01-11-2008 11:01:20 8.5 C 7.09 g/m*3 8.5 C 0 km/h
Sensor: Nr:Datum:Temp:Abs-Feuchte:Windchill:Wind:
Aussen-T/F 376 01-11-2008 11:26:20 8.7 C 7.01 g/m*3 8.7 C 0 km/h
377 01-11-2008 11:51:20 9.3 C 6.74 g/m*3 9.3 C 0 km/h
378 01-11-2008 12:16:21 9.6 C 6.78 g/m*3 9.6 C 0 km/h
379 01-11-2008 12:41:21 10 C 6.58 g/m*3 10 C 0 km/h
380 01-11-2008 13:06:21 10 C 6.58 g/m*3 10 C 0 km/h
381 01-11-2008 13:31:21 10.3 C 6.7 g/m*3 10.3 C 0 km/h
382 01-11-2008 13:56:21 10.3 C 6.8 g/m*3 10.3 C 0 km/h
383 01-11-2008 14:21:21 10.4 C 6.84 g/m*3 10.4 C 0 km/h
384 01-11-2008 14:46:21 10.5 C 6.89 g/m*3 10.5 C 0 km/h
385 01-11-2008 15:11:21 10.8 C 6.92 g/m*3 10.8 C 0 km/h
386 01-11-2008 15:36:21 10.5 C 7.18 g/m*3 10.5 C 0 km/h
387 01-11-2008 16:01:21 10.1 C 7.28 g/m*3 10.1 C 0 km/h
388 01-11-2008 16:26:21 9.8 C 7.52 g/m*3 9.8 C 0 km/h
389 01-11-2008 16:51:21 9.5 C 7.55 g/m*3 9.5 C 0 km/h
390 01-11-2008 17:16:21 9.4 C 7.6 g/m*3 9.4 C 0 km/h
391 01-11-2008 17:41:21 9.5 C 7.74 g/m*3 9.5 C 0 km/h
392 01-11-2008 18:06:21 9.4 C 7.69 g/m*3 9.4 C 0 km/h
393 01-11-2008 18:31:21 9.2 C 7.59 g/m*3 9.2 C 0 km/h
394 01-11-2008 18:56:21 9.2 C 7.68 g/m*3 9.2 C 0 km/h
395 01-11-2008 19:21:21 9.2 C 7.68 g/m*3 9.2 C 0 km/h
396 01-11-2008 19:46:21 9.2 C 7.68 g/m*3 9.2 C 0 km/h
397 01-11-2008 20:11:21 9 C 7.41 g/m*3 9 C 0 km/h
398 01-11-2008 20:36:22 8.9 C 7.53 g/m*3 8.9 C 0 km/h
399 01-11-2008 21:01:22 8.7 C 7.52 g/m*3 8.7 C 0 km/h
400 01-11-2008 21:26:22 8.4 C 7.38 g/m*3 8.4 C 0 km/h
Sensor: Nr:Datum:Temp:Abs-Feuchte:Windchill:Wind:
Aussen-T/F 401 01-11-2008 21:51:22 8.3 C 7.42 g/m*3 8.3 C 0 km/h
402 01-11-2008 22:16:22 8.6 C 7.65 g/m*3 8.6 C 0 km/h
403 01-11-2008 22:41:22 8.6 C 7.73 g/m*3 8.6 C 0 km/h
404 01-11-2008 23:06:22 8.5 C 7.68 g/m*3 8.5 C 0 km/h
405 01-11-2008 23:31:22 8.4 C 7.63 g/m*3 8.4 C 0 km/h
406 01-11-2008 23:56:22 8.4 C 7.72 g/m*3 8.4 C 0 km/h
407 02-11-2008 00:21:22 8.5 C 7.77 g/m*3 8.5 C 0 km/h
408 02-11-2008 00:46:22 8.5 C 7.85 g/m*3 8.5 C 0 km/h
409 02-11-2008 01:11:22 9.6 C 7.79 g/m*3 9.6 C 0 km/h
410 02-11-2008 01:36:22 9.8 C 7.42 g/m*3 9.8 C 0 km/h
411 02-11-2008 02:01:22 9.3 C 7.46 g/m*3 9.3 C 0 km/h
412 02-11-2008 02:26:22 9.4 C 7.51 g/m*3 9.4 C 0 km/h
413 02-11-2008 02:51:22 9 C 7.41 g/m*3 9 C 0 km/h
414 02-11-2008 03:16:22 8.9 C 7.53 g/m*3 8.9 C 0 km/h
415 02-11-2008 03:41:22 8.5 C 7.43 g/m*3 8.5 C 0 km/h
416 02-11-2008 04:06:22 8.3 C 7.5 g/m*3 8.3 C 0 km/h
417 02-11-2008 04:31:22 8.1 C 7.49 g/m*3 8.1 C 0 km/h
418 02-11-2008 04:56:22 7.9 C 7.47 g/m*3 7.9 C 0 km/h
419 02-11-2008 05:21:23 7.6 C 7.41 g/m*3 7.6 C 0 km/h
420 02-11-2008 05:46:23 7.6 C 7.41 g/m*3 7.6 C 0 km/h
421 02-11-2008 06:11:23 7.4 C 7.4 g/m*3 7.4 C 0 km/h
422 02-11-2008 06:36:23 7.5 C 7.52 g/m*3 7.5 C 0 km/h
423 02-11-2008 07:01:23 7.4 C 7.48 g/m*3 7.4 C 0 km/h
424 02-11-2008 07:26:23 7.3 C 7.43 g/m*3 7.3 C 0 km/h
425 02-11-2008 07:51:23 7.1 C 7.33 g/m*3 7.1 C 0 km/h
Sensor: Nr:Datum:Temp:Abs-Feuchte:Windchill:Wind:
Aussen-T/F 426 02-11-2008 08:16:23 7.3 C 7.43 g/m*3 7.3 C 0 km/h
427 02-11-2008 08:41:23 7.6 C 7.65 g/m*3 7.6 C 0 km/h
428 02-11-2008 09:06:23 7.6 C 7.65 g/m*3 7.6 C 0 km/h
429 02-11-2008 09:31:23 8.1 C 7.82 g/m*3 8.1 C 0 km/h
430 02-11-2008 09:56:23 8.7 C 8.13 g/m*3 8.7 C 0 km/h
431 02-11-2008 10:21:23 9.5 C 8.47 g/m*3 9.5 C 0 km/h
432 02-11-2008 10:46:23 10.1 C 8.42 g/m*3 10.1 C 0 km/h
433 02-11-2008 11:11:23 10.8 C 8.2 g/m*3 10.8 C 0 km/h
434 02-11-2008 11:36:23 11.5 C 8.06 g/m*3 11.5 C 0 km/h
435 02-11-2008 12:01:23 12.5 C 8.25 g/m*3 12.5 C 0 km/h
436 02-11-2008 12:26:23 13.4 C 8.02 g/m*3 13.4 C 0 km/h
437 02-11-2008 12:51:23 13.5 C 7.84 g/m*3 13.5 C 0 km/h
438 02-11-2008 13:16:23 13.8 C 7.74 g/m*3 13.8 C 0 km/h
439 02-11-2008 13:41:24 14.1 C 7.89 g/m*3 14.1 C 0 km/h
440 02-11-2008 14:06:24 15.4 C 7.88 g/m*3 15.4 C 0 km/h
441 02-11-2008 14:31:24 14.8 C 7.73 g/m*3 14.8 C 0 km/h
442 02-11-2008 14:56:24 14.4 C 7.91 g/m*3 14.4 C 0 km/h
443 02-11-2008 15:21:24 14.4 C 7.91 g/m*3 14.4 C 0 km/h
444 02-11-2008 15:46:24 13.8 C 8.1 g/m*3 13.8 C 0 km/h
445 02-11-2008 16:11:24 13.5 C 8.19 g/m*3 13.5 C 0 km/h
446 02-11-2008 16:36:24 12.6 C 8.19 g/m*3 12.6 C 0 km/h
447 02-11-2008 17:01:24 11.8 C 8.1 g/m*3 11.8 C 0 km/h
448 02-11-2008 17:26:24 11.2 C 8.01 g/m*3 11.2 C 0 km/h
449 02-11-2008 17:51:24 10.6 C 8 g/m*3 10.6 C 0 km/h
450 02-11-2008 18:16:24 10.7 C 8.15 g/m*3 10.7 C 0 km/h
Sensor: Nr:Datum:Temp:Abs-Feuchte:Windchill:Wind:
Aussen-T/F 451 02-11-2008 18:41:24 10.1 C 7.85 g/m*3 10.1 C 0 km/h
452 02-11-2008 19:06:24 9.9 C 7.94 g/m*3 9.9 C 0 km/h
453 02-11-2008 19:31:24 9.8 C 7.89 g/m*3 9.8 C 0 km/h
454 02-11-2008 19:56:24 9.6 C 7.88 g/m*3 9.6 C 0 km/h
455 02-11-2008 20:21:24 9.4 C 7.87 g/m*3 9.4 C 0 km/h
456 02-11-2008 20:46:24 9.2 C 7.86 g/m*3 9.2 C 0 km/h
457 02-11-2008 21:11:24 9.1 C 7.81 g/m*3 9.1 C 0 km/h
458 02-11-2008 21:36:24 9.1 C 7.9 g/m*3 9.1 C 0 km/h
459 02-11-2008 22:01:24 9.2 C 7.95 g/m*3 9.2 C 0 km/h
460 02-11-2008 22:26:25 9 C 7.85 g/m*3 9 C 0 km/h
461 02-11-2008 22:51:25 8.7 C 7.7 g/m*3 8.7 C 0 km/h
462 02-11-2008 23:16:25 8.6 C 7.73 g/m*3 8.6 C 0 km/h
463 02-11-2008 23:41:25 8.2 C 7.62 g/m*3 8.2 C 0 km/h
464 03-11-2008 00:06:25 8.1 C 7.57 g/m*3 8.1 C 0 km/h
465 03-11-2008 00:31:25 8 C 7.52 g/m*3 8 C 0 km/h
466 03-11-2008 00:56:25 7.7 C 7.46 g/m*3 7.7 C 0 km/h
467 03-11-2008 01:21:25 7.8 C 7.59 g/m*3 7.8 C 0 km/h
468 03-11-2008 01:46:25 8 C 7.69 g/m*3 8 C 0 km/h
469 03-11-2008 02:11:25 8 C 7.69 g/m*3 8 C 0 km/h
470 03-11-2008 02:36:25 8 C 7.69 g/m*3 8 C 0 km/h
471 03-11-2008 03:01:25 8.5 C 8.03 g/m*3 8.5 C 0 km/h
472 03-11-2008 03:26:25 8.9 C 8.23 g/m*3 8.9 C 0 km/h
473 03-11-2008 03:51:25 9 C 8.11 g/m*3 9 C 0 km/h
474 03-11-2008 04:16:25 9.1 C 8.07 g/m*3 9.1 C 0 km/h
475 03-11-2008 04:41:25 9.1 C 7.99 g/m*3 9.1 C 0 km/h
Sensor: Nr:Datum:Temp:Abs-Feuchte:Windchill:Wind:
Aussen-T/F 476 03-11-2008 05:06:25 9.2 C 7.95 g/m*3 9.2 C 0 km/h
477 03-11-2008 05:31:25 9.2 C 7.86 g/m*3 9.2 C 0 km/h
478 03-11-2008 05:56:25 9.1 C 7.81 g/m*3 9.1 C 0 km/h
479 03-11-2008 06:21:25 9.2 C 7.86 g/m*3 9.2 C 0 km/h
480 03-11-2008 06:46:25 9.2 C 7.77 g/m*3 9.2 C 0 km/h
481 03-11-2008 07:11:26 9.2 C 7.77 g/m*3 9.2 C 0 km/h
482 03-11-2008 07:36:26 9.2 C 7.77 g/m*3 9.2 C 0 km/h
483 03-11-2008 08:01:26 9.4 C 7.87 g/m*3 9.4 C 0 km/h
484 03-11-2008 08:26:26 9.5 C 7.92 g/m*3 9.5 C 0 km/h
485 03-11-2008 08:51:26 9.8 C 8.07 g/m*3 9.8 C 0 km/h
486 03-11-2008 09:16:26 10.1 C 7.94 g/m*3 10.1 C 0 km/h
487 03-11-2008 09:41:26 10.2 C 7.9 g/m*3 10.2 C 0 km/h
488 03-11-2008 10:06:26 10.4 C 7.81 g/m*3 10.4 C 0 km/h
489 03-11-2008 10:31:26 10.5 C 7.76 g/m*3 10.5 C 0 km/h
490 03-11-2008 10:56:26 11.1 C 7.96 g/m*3 11.1 C 0 km/h
491 03-11-2008 11:21:26 11.4 C 7.8 g/m*3 11.4 C 0 km/h
492 03-11-2008 11:46:26 11.7 C 7.84 g/m*3 11.7 C 0 km/h
493 03-11-2008 12:11:26 12.7 C 8.24 g/m*3 12.7 C 0 km/h
494 03-11-2008 12:36:26 13.1 C 7.99 g/m*3 13.1 C 0 km/h
495 03-11-2008 13:01:26 13.4 C 7.9 g/m*3 13.4 C 0 km/h
496 03-11-2008 13:26:26 13.4 C 7.9 g/m*3 13.4 C 0 km/h
497 03-11-2008 13:51:26 13.5 C 7.72 g/m*3 13.5 C 0 km/h
498 03-11-2008 14:16:26 13.6 C 7.77 g/m*3 13.6 C 0 km/h
499 03-11-2008 14:41:26 14.4 C 7.79 g/m*3 14.4 C 0 km/h
500 03-11-2008 15:06:27 14 C 7.84 g/m*3 14 C 0 km/h
Sensor: Nr:Datum:Temp:Abs-Feuchte:Windchill:Wind:
Aussen-T/F 501 03-11-2008 15:31:27 13.3 C 8.09 g/m*3 13.3 C 0 km/h
502 03-11-2008 15:56:27 13.2 C 8.27 g/m*3 13.2 C 0 km/h
503 03-11-2008 16:21:27 12.7 C 8.24 g/m*3 12.7 C 0 km/h
504 03-11-2008 16:46:27 12.3 C 8.25 g/m*3 12.3 C 0 km/h
505 03-11-2008 17:11:27 11.5 C 8.06 g/m*3 11.5 C 0 km/h
506 03-11-2008 17:36:27 10.8 C 8.01 g/m*3 10.8 C 0 km/h
507 03-11-2008 18:01:27 10.1 C 7.85 g/m*3 10.1 C 0 km/h
508 03-11-2008 18:26:27 9.7 C 7.93 g/m*3 9.7 C 0 km/h
509 03-11-2008 18:51:27 9.3 C 7.82 g/m*3 9.3 C 0 km/h
510 03-11-2008 19:16:27 9 C 7.76 g/m*3 9 C 0 km/h
511 03-11-2008 19:41:27 8.5 C 7.6 g/m*3 8.5 C 0 km/h
512 03-11-2008 20:06:27 8.4 C 7.63 g/m*3 8.4 C 0 km/h
513 03-11-2008 20:31:27 8.1 C 7.49 g/m*3 8.1 C 0 km/h
514 03-11-2008 20:56:27 7.9 C 7.56 g/m*3 7.9 C 0 km/h
515 03-11-2008 21:21:27 7.5 C 7.36 g/m*3 7.5 C 0 km/h
516 03-11-2008 21:46:27 7.1 C 7.18 g/m*3 7.1 C 0 km/h
517 03-11-2008 22:11:27 6.8 C 7.11 g/m*3 6.8 C 0 km/h
518 03-11-2008 22:36:27 6.6 C 7.02 g/m*3 6.6 C 0 km/h
519 03-11-2008 23:01:27 6.4 C 6.93 g/m*3 6.4 C 0 km/h
520 03-11-2008 23:26:28 6.7 C 7.14 g/m*3 6.7 C 0 km/h
521 03-11-2008 23:51:28 7.1 C 7.33 g/m*3 7.1 C 0 km/h
522 04-11-2008 00:16:28 6.9 C 7.31 g/m*3 6.9 C 0 km/h
523 04-11-2008 00:41:28 6.7 C 7.22 g/m*3 6.7 C 0 km/h
524 04-11-2008 01:06:28 6.8 C 7.27 g/m*3 6.8 C 0 km/h
525 04-11-2008 01:31:28 6.8 C 7.27 g/m*3 6.8 C 0 km/h
Sensor: Nr:Datum:Temp:Abs-Feuchte:Windchill:Wind:
Aussen-T/F 526 04-11-2008 01:56:28 6.6 C 7.17 g/m*3 6.6 C 0 km/h
527 04-11-2008 02:21:28 6.5 C 7.12 g/m*3 6.5 C 0 km/h
528 04-11-2008 02:46:28 6.7 C 7.22 g/m*3 6.7 C 0 km/h
529 04-11-2008 03:11:28 6.8 C 7.27 g/m*3 6.8 C 0 km/h
530 04-11-2008 03:36:28 6.8 C 7.27 g/m*3 6.8 C 0 km/h
531 04-11-2008 04:01:28 6.8 C 7.27 g/m*3 6.8 C 0 km/h
532 04-11-2008 04:26:28 6.7 C 7.22 g/m*3 6.7 C 0 km/h
533 04-11-2008 04:51:28 6.8 C 7.27 g/m*3 6.8 C 0 km/h
534 04-11-2008 05:16:28 6.4 C 7.08 g/m*3 6.4 C 0 km/h
535 04-11-2008 05:41:28 6.3 C 7.03 g/m*3 6.3 C 0 km/h
536 04-11-2008 06:06:28 6.2 C 6.99 g/m*3 6.2 C 0 km/h
537 04-11-2008 06:31:28 6.3 C 7.03 g/m*3 6.3 C 0 km/h
538 04-11-2008 06:56:28 6.4 C 7.08 g/m*3 6.4 C 0 km/h
539 04-11-2008 07:21:29 6.4 C 7.08 g/m*3 6.4 C 0 km/h
540 04-11-2008 07:46:29 6.5 C 7.12 g/m*3 6.5 C 0 km/h
541 04-11-2008 08:11:29 6.6 C 7.17 g/m*3 6.6 C 0 km/h
542 04-11-2008 08:36:29 6.6 C 7.17 g/m*3 6.6 C 0 km/h
543 04-11-2008 09:01:29 6.9 C 7.31 g/m*3 6.9 C 0 km/h
544 04-11-2008 09:26:29 7.4 C 7.55 g/m*3 7.4 C 0 km/h
545 04-11-2008 09:51:29 7.7 C 7.7 g/m*3 7.7 C 0 km/h
546 04-11-2008 10:16:29 8.1 C 7.9 g/m*3 8.1 C 0 km/h
547 04-11-2008 10:41:29 7.8 C 7.75 g/m*3 7.8 C 0 km/h
548 04-11-2008 11:06:29 8.5 C 8.03 g/m*3 8.5 C 0 km/h
549 04-11-2008 11:31:29 9 C 8.11 g/m*3 9 C 0 km/h
550 04-11-2008 11:56:29 9 C 7.93 g/m*3 9 C 0 km/h
Sensor: Nr:Datum:Temp:Abs-Feuchte:Windchill:Wind:
Aussen-T/F 551 04-11-2008 12:21:29 9.1 C 7.81 g/m*3 9.1 C 0 km/h
552 04-11-2008 12:46:29 9.7 C 8.11 g/m*3 9.7 C 0 km/h
553 04-11-2008 13:11:29 12 C 8.85 g/m*3 12 C 0 km/h
554 04-11-2008 13:36:29 13.7 C 8.05 g/m*3 13.7 C 0 km/h
555 04-11-2008 14:01:29 14.5 C 8.46 g/m*3 14.5 C 0 km/h
556 04-11-2008 14:26:29 14.4 C 8.41 g/m*3 14.4 C 0 km/h
557 04-11-2008 14:51:29 14.4 C 8.41 g/m*3 14.4 C 0 km/h
558 04-11-2008 15:16:30 13.9 C 8.51 g/m*3 13.9 C 0 km/h
559 04-11-2008 15:41:30 13.4 C 8.49 g/m*3 13.4 C 0 km/h
560 04-11-2008 16:06:30 12.8 C 8.4 g/m*3 12.8 C 0 km/h
561 04-11-2008 16:31:30 12.1 C 8.36 g/m*3 12.1 C 0 km/h
562 04-11-2008 16:56:30 11.8 C 8.21 g/m*3 11.8 C 0 km/h
563 04-11-2008 17:21:30 11.9 C 8.26 g/m*3 11.9 C 0 km/h
564 04-11-2008 17:46:30 11.1 C 8.16 g/m*3 11.1 C 0 km/h
565 04-11-2008 18:11:30 10.9 C 8.26 g/m*3 10.9 C 0 km/h
566 04-11-2008 18:36:30 10.8 C 8.4 g/m*3 10.8 C 0 km/h
567 04-11-2008 19:01:30 10.6 C 8.39 g/m*3 10.6 C 0 km/h
568 04-11-2008 19:26:30 10.4 C 8.29 g/m*3 10.4 C 0 km/h
569 04-11-2008 19:51:30 10.2 C 8.28 g/m*3 10.2 C 0 km/h
570 04-11-2008 20:16:30 10.1 C 8.32 g/m*3 10.1 C 0 km/h
571 04-11-2008 20:41:30 9.7 C 8.2 g/m*3 9.7 C 0 km/h
572 04-11-2008 21:06:30 9.3 C 8.09 g/m*3 9.3 C 0 km/h
573 04-11-2008 21:31:30 9.1 C 7.99 g/m*3 9.1 C 0 km/h
574 04-11-2008 21:56:30 9.1 C 8.07 g/m*3 9.1 C 0 km/h
575 04-11-2008 22:21:30 9.1 C 8.16 g/m*3 9.1 C 0 km/h
Sensor: Nr:Datum:Temp:Abs-Feuchte:Windchill:Wind:
Aussen-T/F 576 04-11-2008 22:46:30 8.7 C 8.04 g/m*3 8.7 C 0 km/h
577 04-11-2008 23:11:31 8.4 C 7.89 g/m*3 8.4 C 0 km/h
578 04-11-2008 23:36:31 9 C 8.2 g/m*3 9 C 0 km/h
579 05-11-2008 00:01:31 8.7 C 8.04 g/m*3 8.7 C 0 km/h
580 05-11-2008 00:26:31 8.7 C 8.04 g/m*3 8.7 C 0 km/h
581 05-11-2008 00:51:31 8.6 C 7.99 g/m*3 8.6 C 0 km/h
582 05-11-2008 01:16:31 8.7 C 8.04 g/m*3 8.7 C 0 km/h
583 05-11-2008 01:41:31 8.8 C 7.92 g/m*3 8.8 C 0 km/h
584 05-11-2008 02:06:31 8.7 C 7.7 g/m*3 8.7 C 0 km/h
585 05-11-2008 02:31:31 8.5 C 7.6 g/m*3 8.5 C 0 km/h
586 05-11-2008 02:56:31 8.4 C 7.55 g/m*3 8.4 C 0 km/h
587 05-11-2008 03:21:31 8.3 C 7.5 g/m*3 8.3 C 0 km/h
588 05-11-2008 03:46:31 8.4 C 7.55 g/m*3 8.4 C 0 km/h
589 05-11-2008 04:11:31 8.2 C 7.37 g/m*3 8.2 C 0 km/h
590 05-11-2008 04:36:31 7.9 C 7.39 g/m*3 7.9 C 0 km/h
591 05-11-2008 05:01:31 8.2 C 7.45 g/m*3 8.2 C 0 km/h
592 05-11-2008 05:26:31 8.4 C 7.55 g/m*3 8.4 C 0 km/h
593 05-11-2008 05:51:31 8.4 C 7.55 g/m*3 8.4 C 0 km/h
594 05-11-2008 06:16:31 8.4 C 7.38 g/m*3 8.4 C 0 km/h
595 05-11-2008 06:41:31 8.5 C 7.34 g/m*3 8.5 C 0 km/h
596 05-11-2008 07:06:31 8.4 C 7.21 g/m*3 8.4 C 0 km/h
597 05-11-2008 07:31:32 8.4 C 7.21 g/m*3 8.4 C 0 km/h
598 05-11-2008 07:56:32 8.5 C 7.26 g/m*3 8.5 C 0 km/h
599 05-11-2008 08:21:32 8.7 C 7.35 g/m*3 8.7 C 0 km/h
600 05-11-2008 08:46:32 8.9 C 7.45 g/m*3 8.9 C 0 km/h
Sensor: Nr:Datum:Temp:Abs-Feuchte:Windchill:Wind:
Aussen-T/F 601 05-11-2008 09:11:32 9.2 C 7.5 g/m*3 9.2 C 0 km/h
602 05-11-2008 09:36:32 9.8 C 7.79 g/m*3 9.8 C 0 km/h
603 05-11-2008 10:01:32 10 C 7.42 g/m*3 10 C 0 km/h
604 05-11-2008 10:26:32 10.7 C 7.46 g/m*3 10.7 C 0 km/h
605 05-11-2008 10:51:32 10.7 C 7.46 g/m*3 10.7 C 0 km/h
606 05-11-2008 11:16:32 10.9 C 7.46 g/m*3 10.9 C 0 km/h
607 05-11-2008 11:41:32 11 C 7.51 g/m*3 11 C 0 km/h
608 05-11-2008 12:06:32 11.1 C 7.45 g/m*3 11.1 C 0 km/h
609 05-11-2008 12:31:32 11 C 7.41 g/m*3 11 C 0 km/h
610 05-11-2008 12:56:32 10.8 C 7.51 g/m*3 10.8 C 0 km/h
611 05-11-2008 13:21:32 11 C 7.61 g/m*3 11 C 0 km/h
612 05-11-2008 13:46:32 11.2 C 7.6 g/m*3 11.2 C 0 km/h
613 05-11-2008 14:11:32 11.2 C 7.7 g/m*3 11.2 C 0 km/h
614 05-11-2008 14:36:32 11.4 C 7.8 g/m*3 11.4 C 0 km/h
615 05-11-2008 15:01:32 11.5 C 7.64 g/m*3 11.5 C 0 km/h
616 05-11-2008 15:26:33 11.5 C 7.64 g/m*3 11.5 C 0 km/h
617 05-11-2008 15:51:33 11.4 C 7.7 g/m*3 11.4 C 0 km/h
618 05-11-2008 16:16:33 11.1 C 7.66 g/m*3 11.1 C 0 km/h
619 05-11-2008 16:41:33 10.9 C 7.76 g/m*3 10.9 C 0 km/h
620 05-11-2008 17:06:33 10.7 C 7.66 g/m*3 10.7 C 0 km/h
621 05-11-2008 17:31:33 10.5 C 7.66 g/m*3 10.5 C 0 km/h
622 05-11-2008 17:56:33 10.5 C 7.76 g/m*3 10.5 C 0 km/h
623 05-11-2008 18:21:33 10.4 C 7.81 g/m*3 10.4 C 0 km/h
624 05-11-2008 18:46:33 10.4 C 7.81 g/m*3 10.4 C 0 km/h
625 05-11-2008 19:11:33 10.4 C 7.9 g/m*3 10.4 C 0 km/h
Sensor: Nr:Datum:Temp:Abs-Feuchte:Windchill:Wind:
Aussen-T/F 626 05-11-2008 19:36:33 10.3 C 7.85 g/m*3 10.3 C 0 km/h
627 05-11-2008 20:01:33 10.3 C 7.85 g/m*3 10.3 C 0 km/h
628 05-11-2008 20:26:33 10.3 C 7.95 g/m*3 10.3 C 0 km/h
629 05-11-2008 20:51:33 10.2 C 7.9 g/m*3 10.2 C 0 km/h
630 05-11-2008 21:16:33 10.2 C 7.9 g/m*3 10.2 C 0 km/h
631 05-11-2008 21:41:33 10.2 C 7.9 g/m*3 10.2 C 0 km/h
632 05-11-2008 22:06:33 10.2 C 7.9 g/m*3 10.2 C 0 km/h
633 05-11-2008 22:31:33 10.2 C 7.99 g/m*3 10.2 C 0 km/h
634 05-11-2008 22:56:33 10.2 C 7.99 g/m*3 10.2 C 0 km/h
635 05-11-2008 23:21:34 10.2 C 7.99 g/m*3 10.2 C 0 km/h
636 05-11-2008 23:46:34 10 C 7.99 g/m*3 10 C 0 km/h
637 06-11-2008 00:11:34 10 C 7.99 g/m*3 10 C 0 km/h
638 06-11-2008 00:36:34 10 C 7.99 g/m*3 10 C 0 km/h
639 06-11-2008 01:01:34 10 C 7.99 g/m*3 10 C 0 km/h
640 06-11-2008 01:26:34 9.9 C 8.12 g/m*3 9.9 C 0 km/h
641 06-11-2008 01:51:34 9.8 C 8.07 g/m*3 9.8 C 0 km/h
642 06-11-2008 02:16:34 9.8 C 7.98 g/m*3 9.8 C 0 km/h
643 06-11-2008 02:41:34 9.7 C 7.84 g/m*3 9.7 C 0 km/h
644 06-11-2008 03:06:34 9.5 C 7.74 g/m*3 9.5 C 0 km/h
645 06-11-2008 03:31:34 9.3 C 7.73 g/m*3 9.3 C 0 km/h
646 06-11-2008 03:56:34 8.9 C 7.62 g/m*3 8.9 C 0 km/h
647 06-11-2008 04:21:34 8.5 C 7.43 g/m*3 8.5 C 0 km/h
648 06-11-2008 04:46:34 8.6 C 7.48 g/m*3 8.6 C 0 km/h
649 06-11-2008 05:11:34 8.9 C 7.71 g/m*3 8.9 C 0 km/h
650 06-11-2008 05:36:34 9 C 7.58 g/m*3 9 C 0 km/h
Sensor: Nr:Datum:Temp:Abs-Feuchte:Windchill:Wind:
Aussen-T/F 651 06-11-2008 06:01:34 9 C 7.58 g/m*3 9 C 0 km/h
652 06-11-2008 06:26:34 9.3 C 7.64 g/m*3 9.3 C 0 km/h
653 06-11-2008 06:51:34 9.3 C 7.46 g/m*3 9.3 C 0 km/h
654 06-11-2008 07:16:34 9.3 C 7.46 g/m*3 9.3 C 0 km/h
655 06-11-2008 07:41:35 9.1 C 7.36 g/m*3 9.1 C 0 km/h
656 06-11-2008 08:06:35 9.4 C 7.51 g/m*3 9.4 C 0 km/h
657 06-11-2008 08:31:35 9.7 C 7.56 g/m*3 9.7 C 0 km/h
658 06-11-2008 08:56:35 10 C 7.42 g/m*3 10 C 0 km/h
659 06-11-2008 09:21:35 10.3 C 7.47 g/m*3 10.3 C 0 km/h
660 06-11-2008 09:46:35 10.6 C 7.12 g/m*3 10.6 C 0 km/h
661 06-11-2008 10:11:35 11 C 7.01 g/m*3 11 C 0 km/h
662 06-11-2008 10:36:35 11.3 C 7.04 g/m*3 11.3 C 0 km/h
663 06-11-2008 11:01:35 12.1 C 7.18 g/m*3 12.1 C 0 km/h
664 06-11-2008 11:26:35 12.4 C 7.1 g/m*3 12.4 C 0 km/h
665 06-11-2008 11:51:35 12.2 C 6.91 g/m*3 12.2 C 0 km/h
666 06-11-2008 12:16:35 12.2 C 6.91 g/m*3 12.2 C 0 km/h
667 06-11-2008 12:41:35 12.1 C 6.97 g/m*3 12.1 C 0 km/h
668 06-11-2008 13:06:35 12.6 C 7.08 g/m*3 12.6 C 0 km/h
669 06-11-2008 13:31:35 12.7 C 7.01 g/m*3 12.7 C 0 km/h
670 06-11-2008 13:56:35 12.4 C 7.1 g/m*3 12.4 C 0 km/h
671 06-11-2008 14:21:35 13 C 7.14 g/m*3 13 C 0 km/h
672 06-11-2008 14:46:35 13.1 C 6.96 g/m*3 13.1 C 0 km/h
673 06-11-2008 15:11:35 13 C 6.92 g/m*3 13 C 0 km/h
674 06-11-2008 15:36:36 12.6 C 6.97 g/m*3 12.6 C 0 km/h
675 06-11-2008 16:01:36 12.4 C 6.99 g/m*3 12.4 C 0 km/h
Sensor: Nr:Datum:Temp:Abs-Feuchte:Windchill:Wind:
Aussen-T/F 676 06-11-2008 16:26:36 11.8 C 6.95 g/m*3 11.8 C 0 km/h
677 06-11-2008 16:51:36 11.4 C 6.98 g/m*3 11.4 C 0 km/h
678 06-11-2008 17:16:36 11.1 C 6.95 g/m*3 11.1 C 0 km/h
679 06-11-2008 17:41:36 10.9 C 7.06 g/m*3 10.9 C 0 km/h
680 06-11-2008 18:06:36 10.1 C 6.9 g/m*3 10.1 C 0 km/h
681 06-11-2008 18:31:36 10.1 C 7 g/m*3 10.1 C 0 km/h
682 06-11-2008 18:56:36 10.2 C 7.04 g/m*3 10.2 C 0 km/h
683 06-11-2008 19:21:36 10.4 C 7.13 g/m*3 10.4 C 0 km/h
684 06-11-2008 19:46:36 10.3 C 7.09 g/m*3 10.3 C 0 km/h
685 06-11-2008 20:11:36 10.2 C 7.14 g/m*3 10.2 C 0 km/h
686 06-11-2008 20:36:36 10.3 C 7.28 g/m*3 10.3 C 0 km/h
687 06-11-2008 21:01:36 10.2 C 7.23 g/m*3 10.2 C 0 km/h
688 06-11-2008 21:26:36 10.4 C 7.23 g/m*3 10.4 C 0 km/h
689 06-11-2008 21:51:36 10.3 C 7.18 g/m*3 10.3 C 0 km/h
690 06-11-2008 22:16:36 10.2 C 7.33 g/m*3 10.2 C 0 km/h
691 06-11-2008 22:41:36 10.2 C 7.33 g/m*3 10.2 C 0 km/h
692 06-11-2008 23:06:36 10.1 C 7.28 g/m*3 10.1 C 0 km/h
693 06-11-2008 23:31:37 10.2 C 7.23 g/m*3 10.2 C 0 km/h
694 06-11-2008 23:56:37 10.2 C 7.23 g/m*3 10.2 C 0 km/h
695 07-11-2008 00:21:37 10.1 C 7.19 g/m*3 10.1 C 0 km/h
696 07-11-2008 00:46:37 10.1 C 7.19 g/m*3 10.1 C 0 km/h
697 07-11-2008 01:11:37 10 C 7.24 g/m*3 10 C 0 km/h
698 07-11-2008 01:36:37 10 C 7.24 g/m*3 10 C 0 km/h
699 07-11-2008 02:01:37 10 C 7.14 g/m*3 10 C 0 km/h
700 07-11-2008 02:26:37 10 C 7.14 g/m*3 10 C 0 km/h
Sensor: Nr:Datum:Temp:Abs-Feuchte:Windchill:Wind:
Aussen-T/F 701 07-11-2008 02:51:37 9.9 C 7.28 g/m*3 9.9 C 0 km/h
702 07-11-2008 03:16:37 9.9 C 7.19 g/m*3 9.9 C 0 km/h
703 07-11-2008 03:41:37 10 C 7.14 g/m*3 10 C 0 km/h
704 07-11-2008 04:06:37 10.2 C 7.14 g/m*3 10.2 C 0 km/h
705 07-11-2008 04:31:37 10.1 C 7.19 g/m*3 10.1 C 0 km/h
706 07-11-2008 04:56:37 10.3 C 7.28 g/m*3 10.3 C 0 km/h
707 07-11-2008 05:21:37 10.3 C 7.28 g/m*3 10.3 C 0 km/h
708 07-11-2008 05:46:37 10.2 C 7.23 g/m*3 10.2 C 0 km/h
709 07-11-2008 06:11:37 10.1 C 7.19 g/m*3 10.1 C 0 km/h
710 07-11-2008 06:36:37 10 C 7.14 g/m*3 10 C 0 km/h
711 07-11-2008 07:01:37 10.1 C 7.09 g/m*3 10.1 C 0 km/h
712 07-11-2008 07:26:38 10.1 C 7 g/m*3 10.1 C 0 km/h
713 07-11-2008 07:51:38 9.8 C 7.05 g/m*3 9.8 C 0 km/h
714 07-11-2008 08:16:38 9.6 C 7.15 g/m*3 9.6 C 0 km/h
715 07-11-2008 08:41:38 10.3 C 6.99 g/m*3 10.3 C 0 km/h
716 07-11-2008 09:06:38 10.8 C 7.02 g/m*3 10.8 C 0 km/h
717 07-11-2008 09:31:38 11 C 6.91 g/m*3 11 C 0 km/h
718 07-11-2008 09:56:38 11.1 C 6.95 g/m*3 11.1 C 0 km/h
719 07-11-2008 10:21:38 11.3 C 7.04 g/m*3 11.3 C 0 km/h
720 07-11-2008 10:46:38 11.2 C 6.89 g/m*3 11.2 C 0 km/h
721 07-11-2008 11:11:38 11.6 C 6.96 g/m*3 11.6 C 0 km/h
722 07-11-2008 11:36:38 12.2 C 6.91 g/m*3 12.2 C 0 km/h
723 07-11-2008 12:01:38 12.7 C 6.9 g/m*3 12.7 C 0 km/h
724 07-11-2008 12:26:38 13.1 C 6.85 g/m*3 13.1 C 0 km/h
725 07-11-2008 12:51:38 13.2 C 6.77 g/m*3 13.2 C 0 km/h
Sensor: Nr:Datum:Temp:Abs-Feuchte:Windchill:Wind:
Aussen-T/F 726 07-11-2008 13:16:38 13.8 C 6.91 g/m*3 13.8 C 0 km/h
727 07-11-2008 13:41:38 13.6 C 6.71 g/m*3 13.6 C 0 km/h
728 07-11-2008 14:06:38 13.8 C 7.03 g/m*3 13.8 C 0 km/h
729 07-11-2008 14:31:38 14.5 C 7.09 g/m*3 14.5 C 0 km/h
730 07-11-2008 14:56:38 14 C 7 g/m*3 14 C 0 km/h
731 07-11-2008 15:21:38 13.8 C 7.27 g/m*3 13.8 C 0 km/h
732 07-11-2008 15:46:39 13.5 C 7.37 g/m*3 13.5 C 0 km/h
733 07-11-2008 16:11:39 13.1 C 7.3 g/m*3 13.1 C 0 km/h
734 07-11-2008 16:36:39 12.7 C 7.57 g/m*3 12.7 C 0 km/h
735 07-11-2008 17:01:39 12.4 C 7.43 g/m*3 12.4 C 0 km/h
736 07-11-2008 17:26:39 11.8 C 7.26 g/m*3 11.8 C 0 km/h
737 07-11-2008 17:51:39 11.1 C 7.15 g/m*3 11.1 C 0 km/h
738 07-11-2008 18:16:39 10.4 C 7.23 g/m*3 10.4 C 0 km/h
739 07-11-2008 18:41:39 10.4 C 7.42 g/m*3 10.4 C 0 km/h
740 07-11-2008 19:06:39 10.7 C 7.56 g/m*3 10.7 C 0 km/h
741 07-11-2008 19:31:39 10.6 C 7.32 g/m*3 10.6 C 0 km/h
742 07-11-2008 19:56:39 10 C 7.33 g/m*3 10 C 0 km/h
743 07-11-2008 20:21:39 9.9 C 7.56 g/m*3 9.9 C 0 km/h
744 07-11-2008 20:46:39 9.5 C 7.37 g/m*3 9.5 C 0 km/h
745 07-11-2008 21:11:39 9.1 C 7.36 g/m*3 9.1 C 0 km/h
746 07-11-2008 21:36:39 8.7 C 7.44 g/m*3 8.7 C 0 km/h
747 07-11-2008 22:01:39 8.4 C 7.38 g/m*3 8.4 C 0 km/h
748 07-11-2008 22:26:39 7.9 C 7.31 g/m*3 7.9 C 0 km/h
749 07-11-2008 22:51:39 7.5 C 7.12 g/m*3 7.5 C 0 km/h
750 07-11-2008 23:16:39 7.3 C 7.03 g/m*3 7.3 C 0 km/h
Sensor: Nr:Datum:Temp:Abs-Feuchte:Windchill:Wind:
Aussen-T/F 751 07-11-2008 23:41:40 7.3 C 7.11 g/m*3 7.3 C 0 km/h
752 08-11-2008 00:06:40 7.3 C 7.19 g/m*3 7.3 C 0 km/h
753 08-11-2008 00:31:40 6.9 C 7.08 g/m*3 6.9 C 0 km/h
754 08-11-2008 00:56:40 7.1 C 7.18 g/m*3 7.1 C 0 km/h
755 08-11-2008 01:21:40 7 C 7.13 g/m*3 7 C 0 km/h
756 08-11-2008 01:46:40 7.2 C 7.3 g/m*3 7.2 C 0 km/h
757 08-11-2008 02:11:40 7.3 C 7.35 g/m*3 7.3 C 0 km/h
758 08-11-2008 02:36:40 7.5 C 7.44 g/m*3 7.5 C 0 km/h
759 08-11-2008 03:01:40 7.8 C 7.59 g/m*3 7.8 C 0 km/h
760 08-11-2008 03:26:40 7.9 C 7.56 g/m*3 7.9 C 0 km/h
761 08-11-2008 03:51:40 8.1 C 7.57 g/m*3 8.1 C 0 km/h
762 08-11-2008 04:16:40 8.2 C 7.62 g/m*3 8.2 C 0 km/h
763 08-11-2008 04:41:40 8.3 C 7.67 g/m*3 8.3 C 0 km/h
764 08-11-2008 05:06:40 8.3 C 7.59 g/m*3 8.3 C 0 km/h
765 08-11-2008 05:31:40 8 C 7.44 g/m*3 8 C 0 km/h
766 08-11-2008 05:56:40 8.6 C 7.82 g/m*3 8.6 C 0 km/h
767 08-11-2008 06:21:40 8.6 C 7.65 g/m*3 8.6 C 0 km/h
768 08-11-2008 06:46:40 8.5 C 7.6 g/m*3 8.5 C 0 km/h
769 08-11-2008 07:11:40 8.5 C 7.77 g/m*3 8.5 C 0 km/h
770 08-11-2008 07:36:41 8 C 7.52 g/m*3 8 C 0 km/h
771 08-11-2008 08:01:41 7.9 C 7.64 g/m*3 7.9 C 0 km/h
772 08-11-2008 08:26:41 7.3 C 7.27 g/m*3 7.3 C 0 km/h
773 08-11-2008 08:51:41 7.2 C 7.3 g/m*3 7.2 C 0 km/h
774 08-11-2008 09:16:41 7.6 C 7.57 g/m*3 7.6 C 0 km/h
775 08-11-2008 09:41:41 8.2 C 7.87 g/m*3 8.2 C 0 km/h
Sensor: Nr:Datum:Temp:Abs-Feuchte:Windchill:Wind:
Aussen-T/F 776 08-11-2008 10:06:41 8.7 C 8.13 g/m*3 8.7 C 0 km/h
777 08-11-2008 10:31:41 8.9 C 7.88 g/m*3 8.9 C 0 km/h
778 08-11-2008 10:56:41 9.3 C 7.28 g/m*3 9.3 C 0 km/h
779 08-11-2008 11:21:41 9.7 C 6.36 g/m*3 9.7 C 0 km/h
780 08-11-2008 11:46:41 10.3 C 6.03 g/m*3 10.3 C 0 km/h
781 08-11-2008 12:11:41 10.9 C 5.97 g/m*3 10.9 C 0 km/h
782 08-11-2008 12:36:41 11.7 C 5.86 g/m*3 11.7 C 0 km/h
783 08-11-2008 13:01:41 12.2 C 5.4 g/m*3 12.2 C 0 km/h
784 08-11-2008 13:26:41 12.4 C 5.14 g/m*3 12.4 C 0 km/h
785 08-11-2008 13:51:01 12 C 5.33 g/m*3 12 C 0 km/h
786 08-11-2008 14:16:01 11.9 C 5.51 g/m*3 11.9 C 0 km/h
787 08-11-2008 14:41:01 12 C 5.44 g/m*3 12 C 0 km/h
788 08-11-2008 15:06:02 11.8 C 5.79 g/m*3 11.8 C 0 km/h
789 08-11-2008 15:31:02 12 C 5.86 g/m*3 12 C 0 km/h
790 08-11-2008 15:56:02 11.2 C 5.98 g/m*3 11.2 C 0 km/h
791 08-11-2008 16:21:02 10.2 C 5.8 g/m*3 10.2 C 0 km/h
792 08-11-2008 16:46:02 9.5 C 6.01 g/m*3 9.5 C 0 km/h
793 08-11-2008 17:11:02 8.8 C 6.09 g/m*3 8.8 C 0 km/h
794 08-11-2008 17:36:02 8.2 C 6.03 g/m*3 8.2 C 0 km/h
795 08-11-2008 18:01:02 7.7 C 6.08 g/m*3 7.7 C 0 km/h
796 08-11-2008 18:26:01 7.4 C 6.04 g/m*3 7.4 C 0 km/h
797 08-11-2008 18:51:01 7.2 C 6.12 g/m*3 7.2 C 0 km/h
798 08-11-2008 19:16:02 6.8 C 6.12 g/m*3 6.8 C 0 km/h
799 08-11-2008 19:41:02 6.5 C 6.15 g/m*3 6.5 C 0 km/h
800 08-11-2008 20:06:02 6.1 C 5.99 g/m*3 6.1 C 0 km/h
Sensor: Nr:Datum:Temp:Abs-Feuchte:Windchill:Wind:
Aussen-T/F 801 08-11-2008 20:31:02 5.8 C 6.02 g/m*3 5.8 C 0 km/h
802 08-11-2008 20:56:02 5.6 C 6.08 g/m*3 5.6 C 0 km/h
803 08-11-2008 21:21:02 5.3 C 5.96 g/m*3 5.3 C 0 km/h
804 08-11-2008 21:46:02 5.2 C 6.06 g/m*3 5.2 C 0 km/h
805 08-11-2008 22:11:03 5.1 C 6.02 g/m*3 5.1 C 0 km/h
806 08-11-2008 22:36:03 4.7 C 6 g/m*3 4.7 C 0 km/h
807 08-11-2008 23:01:02 4.9 C 6.14 g/m*3 4.9 C 0 km/h
808 08-11-2008 23:26:02 5.3 C 6.38 g/m*3 5.3 C 0 km/h
809 08-11-2008 23:50:02 5.8 C 6.66 g/m*3 5.8 C 0 km/h
810 09-11-2008 00:02:03 6.4 C 6.85 g/m*3 6.4 C 0 km/h
811 09-11-2008 00:14:03 6.7 C 6.84 g/m*3 6.7 C 0 km/h
812 09-11-2008 00:26:03 6.7 C 6.76 g/m*3 6.7 C 0 km/h
813 09-11-2008 00:38:03 7 C 6.74 g/m*3 7 C 0 km/h
814 09-11-2008 00:50:02 7 C 6.59 g/m*3 7 C 0 km/h
815 09-11-2008 01:02:03 6.6 C 6.42 g/m*3 6.6 C 0 km/h
816 09-11-2008 01:14:03 6.7 C 6.53 g/m*3 6.7 C 0 km/h
817 09-11-2008 01:26:02 6.5 C 6.37 g/m*3 6.5 C 0 km/h
818 09-11-2008 01:38:03 6.5 C 6.45 g/m*3 6.5 C 0 km/h
819 09-11-2008 01:50:02 6.4 C 6.41 g/m*3 6.4 C 0 km/h
820 09-11-2008 02:02:01 7.1 C 6.63 g/m*3 7.1 C 0 km/h
821 09-11-2008 02:14:01 7.5 C 6.56 g/m*3 7.5 C 0 km/h
822 09-11-2008 02:26:02 7.3 C 6.4 g/m*3 7.3 C 0 km/h
823 09-11-2008 02:38:01 7.6 C 6.53 g/m*3 7.6 C 0 km/h
824 09-11-2008 02:50:01 7.5 C 6.32 g/m*3 7.5 C 0 km/h
825 09-11-2008 03:02:01 7.7 C 6.49 g/m*3 7.7 C 0 km/h
Sensor: Nr:Datum:Temp:Abs-Feuchte:Windchill:Wind:
Aussen-T/F 826 09-11-2008 03:14:02 8 C 6.45 g/m*3 8 C 0 km/h
827 09-11-2008 03:26:02 8 C 6.45 g/m*3 8 C 0 km/h
828 09-11-2008 03:38:01 8.2 C 6.53 g/m*3 8.2 C 0 km/h
829 09-11-2008 03:50:01 8.8 C 6.61 g/m*3 8.8 C 0 km/h
830 09-11-2008 04:02:01 9.3 C 6.56 g/m*3 9.3 C 0 km/h
831 09-11-2008 04:14:01 9.4 C 6.51 g/m*3 9.4 C 0 km/h
832 09-11-2008 04:26:01 9.6 C 6.5 g/m*3 9.6 C 0 km/h
833 09-11-2008 04:38:01 9.3 C 6.47 g/m*3 9.3 C 0 km/h
834 09-11-2008 04:50:02 9.3 C 6.56 g/m*3 9.3 C 0 km/h
835 09-11-2008 05:02:01 9.2 C 6.52 g/m*3 9.2 C 0 km/h
836 09-11-2008 05:14:01 9.6 C 6.6 g/m*3 9.6 C 0 km/h
837 09-11-2008 05:26:02 9.7 C 6.64 g/m*3 9.7 C 0 km/h
838 09-11-2008 05:38:01 9.7 C 6.64 g/m*3 9.7 C 0 km/h
839 09-11-2008 05:50:02 9.6 C 6.6 g/m*3 9.6 C 0 km/h
840 09-11-2008 06:02:01 9.6 C 6.69 g/m*3 9.6 C 0 km/h
841 09-11-2008 06:14:01 9.6 C 6.6 g/m*3 9.6 C 0 km/h
842 09-11-2008 06:26:02 9.8 C 6.68 g/m*3 9.8 C 0 km/h
843 09-11-2008 06:38:01 9.7 C 6.64 g/m*3 9.7 C 0 km/h
844 09-11-2008 06:50:02 9.7 C 6.64 g/m*3 9.7 C 0 km/h
845 09-11-2008 07:02:01 9.9 C 6.82 g/m*3 9.9 C 0 km/h
846 09-11-2008 07:14:01 10 C 6.77 g/m*3 10 C 0 km/h
847 09-11-2008 07:26:02 9.8 C 6.87 g/m*3 9.8 C 0 km/h
848 09-11-2008 07:38:01 9.4 C 7.15 g/m*3 9.4 C 0 km/h
849 09-11-2008 07:50:01 9.2 C 7.41 g/m*3 9.2 C 0 km/h
850 09-11-2008 08:02:01 9.3 C 7.64 g/m*3 9.3 C 0 km/h
Sensor: Nr:Datum:Temp:Abs-Feuchte:Windchill:Wind:
Aussen-T/F 851 09-11-2008 08:14:01 9.1 C 7.72 g/m*3 9.1 C 0 km/h
852 09-11-2008 08:26:01 9.3 C 7.82 g/m*3 9.3 C 0 km/h
853 09-11-2008 08:38:01 9.4 C 7.96 g/m*3 9.4 C 0 km/h
854 09-11-2008 08:50:01 9.4 C 7.96 g/m*3 9.4 C 0 km/h
855 09-11-2008 09:02:02 9.6 C 8.15 g/m*3 9.6 C 0 km/h
856 09-11-2008 09:14:02 9.6 C 8.15 g/m*3 9.6 C 0 km/h
857 09-11-2008 09:26:01 9.7 C 8.2 g/m*3 9.7 C 0 km/h
858 09-11-2008 09:38:01 9.7 C 8.2 g/m*3 9.7 C 0 km/h
859 09-11-2008 09:50:01 9.8 C 8.35 g/m*3 9.8 C 0 km/h
860 09-11-2008 10:02:02 9.7 C 8.3 g/m*3 9.7 C 0 km/h
861 09-11-2008 10:14:02 9.7 C 8.3 g/m*3 9.7 C 0 km/h
862 09-11-2008 10:26:01 9.7 C 8.39 g/m*3 9.7 C 0 km/h
863 09-11-2008 10:38:02 9.8 C 8.44 g/m*3 9.8 C 0 km/h
864 09-11-2008 10:50:01 9.8 C 8.54 g/m*3 9.8 C 0 km/h
865 09-11-2008 11:02:02 9.8 C 8.54 g/m*3 9.8 C 0 km/h
866 09-11-2008 11:14:02 9.9 C 8.59 g/m*3 9.9 C 0 km/h
867 09-11-2008 11:26:01 10.1 C 8.7 g/m*3 10.1 C 0 km/h
868 09-11-2008 11:38:02 10.3 C 8.81 g/m*3 10.3 C 0 km/h
869 09-11-2008 11:50:02 10.3 C 8.81 g/m*3 10.3 C 0 km/h
870 09-11-2008 12:02:02 10.4 C 8.87 g/m*3 10.4 C 0 km/h
871 09-11-2008 12:14:02 10.7 C 9.04 g/m*3 10.7 C 0 km/h
872 09-11-2008 12:26:02 11 C 9.11 g/m*3 11 C 0 km/h
873 09-11-2008 12:38:02 10.8 C 8.99 g/m*3 10.8 C 0 km/h
874 09-11-2008 12:50:02 10.9 C 9.05 g/m*3 10.9 C 0 km/h
875 09-11-2008 13:02:02 10.6 C 8.69 g/m*3 10.6 C 0 km/h
Sensor: Nr:Datum:Temp:Abs-Feuchte:Windchill:Wind:
Aussen-T/F 876 09-11-2008 13:14:02 10.5 C 8.44 g/m*3 10.5 C 0 km/h
877 09-11-2008 13:26:02 10.6 C 8.39 g/m*3 10.6 C 0 km/h
878 09-11-2008 13:38:02 10.3 C 8.24 g/m*3 10.3 C 0 km/h
879 09-11-2008 13:50:02 9.8 C 7.61 g/m*3 9.8 C 0 km/h
880 09-11-2008 14:02:02 9.5 C 7.1 g/m*3 9.5 C 0 km/h
881 09-11-2008 14:14:02 9.7 C 7.19 g/m*3 9.7 C 0 km/h
882 09-11-2008 14:26:01 9.5 C 7.28 g/m*3 9.5 C 0 km/h
883 09-11-2008 14:38:02 9.6 C 7.51 g/m*3 9.6 C 0 km/h
884 09-11-2008 14:50:01 9.7 C 7.56 g/m*3 9.7 C 0 km/h
885 09-11-2008 15:02:01 9.8 C 7.24 g/m*3 9.8 C 0 km/h
886 09-11-2008 15:14:01 10.1 C 6.9 g/m*3 10.1 C 0 km/h
887 09-11-2008 15:26:02 10 C 6.95 g/m*3 10 C 0 km/h
888 09-11-2008 15:38:02 10.1 C 6.9 g/m*3 10.1 C 0 km/h
889 09-11-2008 15:50:01 9.9 C 7 g/m*3 9.9 C 0 km/h
890 09-11-2008 16:02:03 9.8 C 7.14 g/m*3 9.8 C 0 km/h
891 09-11-2008 16:14:03 9.6 C 7.15 g/m*3 9.6 C 0 km/h
892 09-11-2008 16:26:01 9.4 C 7.15 g/m*3 9.4 C 0 km/h
893 09-11-2008 16:38:02 9.2 C 7.23 g/m*3 9.2 C 0 km/h
894 09-11-2008 16:50:02 9.1 C 7.19 g/m*3 9.1 C 0 km/h
895 09-11-2008 17:02:02 9.1 C 7.19 g/m*3 9.1 C 0 km/h
896 09-11-2008 17:14:02 9 C 7.14 g/m*3 9 C 0 km/h
897 09-11-2008 17:26:02 8.8 C 7.22 g/m*3 8.8 C 0 km/h
898 09-11-2008 17:38:03 8.7 C 7.26 g/m*3 8.7 C 0 km/h
899 09-11-2008 17:50:02 8.7 C 7.26 g/m*3 8.7 C 0 km/h
900 09-11-2008 18:02:02 8.6 C 7.22 g/m*3 8.6 C 0 km/h
Sensor: Nr:Datum:Temp:Abs-Feuchte:Windchill:Wind:
Aussen-T/F 901 09-11-2008 18:14:02 8.5 C 7 g/m*3 8.5 C 0 km/h
902 09-11-2008 18:26:02 8.1 C 6.82 g/m*3 8.1 C 0 km/h
903 09-11-2008 18:38:02 7.9 C 6.82 g/m*3 7.9 C 0 km/h
904 09-11-2008 18:50:01 7.8 C 6.77 g/m*3 7.8 C 0 km/h
905 09-11-2008 19:02:02 7.6 C 6.69 g/m*3 7.6 C 0 km/h
906 09-11-2008 19:14:02 7.4 C 6.68 g/m*3 7.4 C 0 km/h
907 09-11-2008 19:26:03 7.4 C 6.76 g/m*3 7.4 C 0 km/h
908 09-11-2008 19:38:03 7.3 C 6.72 g/m*3 7.3 C 0 km/h
909 09-11-2008 19:50:02 7.4 C 6.84 g/m*3 7.4 C 0 km/h
910 09-11-2008 20:02:02 7.5 C 6.8 g/m*3 7.5 C 0 km/h
911 09-11-2008 20:14:02 7.4 C 6.76 g/m*3 7.4 C 0 km/h
912 09-11-2008 20:26:01 7.6 C 6.93 g/m*3 7.6 C 0 km/h
913 09-11-2008 20:38:02 7.4 C 6.76 g/m*3 7.4 C 0 km/h
914 09-11-2008 20:50:02 7.4 C 6.92 g/m*3 7.4 C 0 km/h
915 09-11-2008 21:02:01 7.6 C 7.01 g/m*3 7.6 C 0 km/h
916 09-11-2008 21:14:01 7.7 C 7.14 g/m*3 7.7 C 0 km/h
917 09-11-2008 21:26:02 7.9 C 7.23 g/m*3 7.9 C 0 km/h
918 09-11-2008 21:38:01 7.9 C 7.23 g/m*3 7.9 C 0 km/h
919 09-11-2008 21:50:02 7.9 C 7.31 g/m*3 7.9 C 0 km/h
920 09-11-2008 22:02:01 7.9 C 7.31 g/m*3 7.9 C 0 km/h
921 09-11-2008 22:14:01 7.8 C 7.35 g/m*3 7.8 C 0 km/h
922 09-11-2008 22:26:02 8 C 7.44 g/m*3 8 C 0 km/h
923 09-11-2008 22:38:01 8.3 C 7.67 g/m*3 8.3 C 0 km/h
924 09-11-2008 22:50:01 8.5 C 7.77 g/m*3 8.5 C 0 km/h
925 09-11-2008 23:02:01 8.5 C 7.77 g/m*3 8.5 C 0 km/h
Sensor: Nr:Datum:Temp:Abs-Feuchte:Windchill:Wind:
Aussen-T/F 926 09-11-2008 23:14:01 8.9 C 8.06 g/m*3 8.9 C 0 km/h
927 09-11-2008 23:26:01 9.3 C 8.27 g/m*3 9.3 C 0 km/h
928 09-11-2008 23:38:01 10.1 C 8.7 g/m*3 10.1 C 0 km/h
929 09-11-2008 23:50:01 11.4 C 9.34 g/m*3 11.4 C 0 km/h
930 10-11-2008 00:02:02 12 C 8.95 g/m*3 12 C 0 km/h
931 10-11-2008 00:14:02 12.1 C 8.69 g/m*3 12.1 C 0 km/h
932 10-11-2008 00:26:02 12.3 C 8.58 g/m*3 12.3 C 0 km/h
933 10-11-2008 00:38:02 12.3 C 8.58 g/m*3 12.3 C 0 km/h
934 10-11-2008 00:50:01 12.6 C 8.41 g/m*3 12.6 C 0 km/h
935 10-11-2008 01:02:02 12.9 C 8.34 g/m*3 12.9 C 0 km/h
936 10-11-2008 01:14:02 13 C 8.05 g/m*3 13 C 0 km/h
937 10-11-2008 01:26:01 13 C 7.94 g/m*3 13 C 0 km/h
938 10-11-2008 01:38:02 13 C 7.83 g/m*3 13 C 0 km/h
939 10-11-2008 01:50:02 13.1 C 7.53 g/m*3 13.1 C 0 km/h
940 10-11-2008 02:02:01 13 C 7.48 g/m*3 13 C 0 km/h
941 10-11-2008 02:14:01 13 C 7.48 g/m*3 13 C 0 km/h
942 10-11-2008 02:26:02 12.9 C 7.55 g/m*3 12.9 C 0 km/h
943 10-11-2008 02:38:01 12.5 C 7.81 g/m*3 12.5 C 0 km/h
944 10-11-2008 02:51:05 12 C 7.99 g/m*3 12 C 0 km/h
945 10-11-2008 03:03:05 11.8 C 8.21 g/m*3 11.8 C 0 km/h
946 10-11-2008 03:15:05 11.2 C 8.51 g/m*3 11.2 C 0 km/h
947 10-11-2008 03:27:05 11.1 C 8.66 g/m*3 11.1 C 0 km/h
948 10-11-2008 03:39:02 11.3 C 8.67 g/m*3 11.3 C 0 km/h
949 10-11-2008 03:51:02 11.6 C 8.52 g/m*3 11.6 C 0 km/h
950 10-11-2008 04:03:03 11.8 C 8.31 g/m*3 11.8 C 0 km/h
Sensor: Nr:Datum:Temp:Abs-Feuchte:Windchill:Wind:
Aussen-T/F 951 10-11-2008 04:15:02 11.9 C 8.26 g/m*3 11.9 C 0 km/h
952 10-11-2008 04:27:02 12 C 8.21 g/m*3 12 C 0 km/h
953 10-11-2008 04:39:03 12.3 C 8.25 g/m*3 12.3 C 0 km/h
954 10-11-2008 04:51:02 12.5 C 8.14 g/m*3 12.5 C 0 km/h
955 10-11-2008 05:03:02 12.5 C 8.14 g/m*3 12.5 C 0 km/h
956 10-11-2008 05:15:02 12.6 C 8.08 g/m*3 12.6 C 0 km/h
957 10-11-2008 05:27:02 12.8 C 8.06 g/m*3 12.8 C 0 km/h
958 10-11-2008 05:39:02 12.9 C 8 g/m*3 12.9 C 0 km/h
959 10-11-2008 05:51:01 13 C 7.83 g/m*3 13 C 0 km/h
960 10-11-2008 06:03:02 13 C 7.83 g/m*3 13 C 0 km/h
961 10-11-2008 06:15:02 13 C 7.83 g/m*3 13 C 0 km/h
962 10-11-2008 06:27:02 13 C 7.83 g/m*3 13 C 0 km/h
963 10-11-2008 06:39:02 13.1 C 7.76 g/m*3 13.1 C 0 km/h
964 10-11-2008 06:51:02 13 C 7.71 g/m*3 13 C 0 km/h
965 10-11-2008 07:03:02 13.1 C 7.76 g/m*3 13.1 C 0 km/h
966 10-11-2008 07:15:02 13.3 C 7.74 g/m*3 13.3 C 0 km/h
967 10-11-2008 07:27:02 13.2 C 7.69 g/m*3 13.2 C 0 km/h
968 10-11-2008 07:39:02 13.1 C 7.87 g/m*3 13.1 C 0 km/h
969 10-11-2008 07:51:02 12.8 C 8.18 g/m*3 12.8 C 0 km/h
970 10-11-2008 08:03:03 12.7 C 8.24 g/m*3 12.7 C 0 km/h
971 10-11-2008 08:15:02 13 C 8.28 g/m*3 13 C 0 km/h
972 10-11-2008 08:27:02 13 C 8.28 g/m*3 13 C 0 km/h
973 10-11-2008 08:39:03 12.8 C 8.4 g/m*3 12.8 C 0 km/h
974 10-11-2008 08:51:02 13 C 8.39 g/m*3 13 C 0 km/h
975 10-11-2008 09:03:01 13 C 8.28 g/m*3 13 C 0 km/h
Sensor: Nr:Datum:Temp:Abs-Feuchte:Windchill:Wind:
Aussen-T/F 976 10-11-2008 09:15:02 13 C 8.28 g/m*3 13 C 0 km/h
977 10-11-2008 09:27:03 13.2 C 8.27 g/m*3 13.2 C 0 km/h
978 10-11-2008 09:39:01 13.4 C 8.14 g/m*3 13.4 C 0 km/h
979 10-11-2008 09:51:02 13.5 C 8.07 g/m*3 13.5 C 0 km/h
980 10-11-2008 10:03:01 13.7 C 8.05 g/m*3 13.7 C 0 km/h
981 10-11-2008 10:15:02 13.7 C 7.93 g/m*3 13.7 C 0 km/h
982 10-11-2008 10:27:02 13.7 C 7.93 g/m*3 13.7 C 0 km/h
983 10-11-2008 10:39:01 13.8 C 7.98 g/m*3 13.8 C 0 km/h
984 10-11-2008 10:51:01 14 C 7.96 g/m*3 14 C 0 km/h
985 10-11-2008 11:03:01 14 C 8.08 g/m*3 14 C 0 km/h
986 10-11-2008 11:15:01 13.8 C 8.22 g/m*3 13.8 C 0 km/h
987 10-11-2008 11:27:01 14 C 8.2 g/m*3 14 C 0 km/h
988 10-11-2008 11:39:01 14.2 C 8.06 g/m*3 14.2 C 0 km/h
989 10-11-2008 11:51:01 14.4 C 8.03 g/m*3 14.4 C 0 km/h
990 10-11-2008 12:03:02 14.7 C 7.93 g/m*3 14.7 C 0 km/h
991 10-11-2008 12:15:02 15.2 C 7.92 g/m*3 15.2 C 0 km/h
992 10-11-2008 12:27:02 15 C 7.82 g/m*3 15 C 0 km/h
993 10-11-2008 12:39:02 15.1 C 7.87 g/m*3 15.1 C 0 km/h
994 10-11-2008 12:51:02 14.9 C 7.9 g/m*3 14.9 C 0 km/h
995 10-11-2008 13:03:01 14.9 C 7.77 g/m*3 14.9 C 0 km/h
996 10-11-2008 13:15:02 15 C 7.69 g/m*3 15 C 0 km/h
997 10-11-2008 13:27:02 14.7 C 7.81 g/m*3 14.7 C 0 km/h
998 10-11-2008 13:39:02 14.8 C 7.85 g/m*3 14.8 C 0 km/h
999 10-11-2008 13:51:02 14.9 C 7.77 g/m*3 14.9 C 0 km/h
1000 10-11-2008 14:03:02 15.3 C 7.84 g/m*3 15.3 C 0 km/h
Sensor: Nr:Datum:Temp:Abs-Feuchte:Windchill:Wind:
Aussen-T/F 1001 10-11-2008 14:15:02 15.3 C 7.57 g/m*3 15.3 C 0 km/h
1002 10-11-2008 14:27:02 15.1 C 7.74 g/m*3 15.1 C 0 km/h
1003 10-11-2008 14:39:02 15 C 7.82 g/m*3 15 C 0 km/h
1004 10-11-2008 14:51:02 14.8 C 7.85 g/m*3 14.8 C 0 km/h
1005 10-11-2008 15:03:01 14.8 C 7.73 g/m*3 14.8 C 0 km/h
1006 10-11-2008 15:15:02 14.8 C 7.73 g/m*3 14.8 C 0 km/h
1007 10-11-2008 15:27:03 14.8 C 7.73 g/m*3 14.8 C 0 km/h
1008 10-11-2008 15:39:01 14.9 C 7.77 g/m*3 14.9 C 0 km/h
1009 10-11-2008 15:51:03 14.8 C 7.73 g/m*3 14.8 C 0 km/h
1010 10-11-2008 16:03:02 14.8 C 7.73 g/m*3 14.8 C 0 km/h
1011 10-11-2008 16:15:03 14.8 C 7.73 g/m*3 14.8 C 0 km/h
1012 10-11-2008 16:27:03 14.7 C 7.81 g/m*3 14.7 C 0 km/h
1013 10-11-2008 16:39:02 14.6 C 7.76 g/m*3 14.6 C 0 km/h
1014 10-11-2008 16:51:02 14.5 C 7.84 g/m*3 14.5 C 0 km/h
1015 10-11-2008 17:03:02 14.5 C 7.71 g/m*3 14.5 C 0 km/h
1016 10-11-2008 17:15:02 14.6 C 7.63 g/m*3 14.6 C 0 km/h
1017 10-11-2008 17:27:02 14.7 C 7.55 g/m*3 14.7 C 0 km/h
1018 10-11-2008 17:39:02 14.7 C 7.55 g/m*3 14.7 C 0 km/h
1019 10-11-2008 17:51:01 14.9 C 7.65 g/m*3 14.9 C 0 km/h
1020 10-11-2008 18:03:02 15.1 C 7.48 g/m*3 15.1 C 0 km/h
1021 10-11-2008 18:15:01 15.2 C 7.4 g/m*3 15.2 C 0 km/h
1022 10-11-2008 18:27:01 15.2 C 7.4 g/m*3 15.2 C 0 km/h
1023 10-11-2008 18:39:02 14.9 C 7.39 g/m*3 14.9 C 0 km/h
1024 10-11-2008 18:51:02 15.1 C 7.22 g/m*3 15.1 C 0 km/h
1025 10-11-2008 19:03:03 15.1 C 7.1 g/m*3 15.1 C 0 km/h
Sensor: Nr:Datum:Temp:Abs-Feuchte:Windchill:Wind:
Aussen-T/F 1026 10-11-2008 19:15:02 15.2 C 7.14 g/m*3 15.2 C 0 km/h
1027 10-11-2008 19:27:02 15 C 7.05 g/m*3 15 C 0 km/h
1028 10-11-2008 19:39:03 15.1 C 7.1 g/m*3 15.1 C 0 km/h
1029 10-11-2008 19:51:02 15.2 C 7.14 g/m*3 15.2 C 0 km/h
1030 10-11-2008 20:03:02 15.1 C 7.22 g/m*3 15.1 C 0 km/h
1031 10-11-2008 20:15:02 15.3 C 7.31 g/m*3 15.3 C 0 km/h
1032 10-11-2008 20:27:02 15.3 C 7.31 g/m*3 15.3 C 0 km/h
1033 10-11-2008 20:39:02 15.3 C 7.31 g/m*3 15.3 C 0 km/h
1034 10-11-2008 20:51:02 15.4 C 7.36 g/m*3 15.4 C 0 km/h
1035 10-11-2008 21:03:02 15.5 C 7.53 g/m*3 15.5 C 0 km/h
1036 10-11-2008 21:15:02 15.5 C 7.53 g/m*3 15.5 C 0 km/h
1037 10-11-2008 21:27:02 15.6 C 7.58 g/m*3 15.6 C 0 km/h
1038 10-11-2008 21:39:02 15.4 C 7.75 g/m*3 15.4 C 0 km/h
1039 10-11-2008 21:51:01 15.2 C 8.05 g/m*3 15.2 C 0 km/h
1040 10-11-2008 22:03:02 15.3 C 7.97 g/m*3 15.3 C 0 km/h
1041 10-11-2008 22:15:02 15.2 C 8.05 g/m*3 15.2 C 0 km/h
1042 10-11-2008 22:27:02 15.5 C 7.93 g/m*3 15.5 C 0 km/h
1043 10-11-2008 22:39:02 15.7 C 7.63 g/m*3 15.7 C 0 km/h
1044 10-11-2008 22:52:02 15.8 C 7.67 g/m*3 15.8 C 0 km/h
1045 10-11-2008 23:04:02 15.8 C 7.54 g/m*3 15.8 C 0 km/h
1046 10-11-2008 23:16:02 15.9 C 7.58 g/m*3 15.9 C 0 km/h
1047 10-11-2008 23:28:02 15.8 C 7.54 g/m*3 15.8 C 0 km/h
1048 10-11-2008 23:40:02 15.8 C 7.54 g/m*3 15.8 C 0 km/h
1049 10-11-2008 23:52:02 16 C 7.49 g/m*3 16 C 0 km/h
1050 11-11-2008 00:04:02 16 C 7.49 g/m*3 16 C 0 km/h
Sensor: Nr:Datum:Temp:Abs-Feuchte:Windchill:Wind:
Aussen-T/F 1051 11-11-2008 00:16:02 16 C 7.49 g/m*3 16 C 0 km/h
1052 11-11-2008 00:28:02 15.8 C 7.67 g/m*3 15.8 C 0 km/h
1053 11-11-2008 00:40:02 15.9 C 7.58 g/m*3 15.9 C 0 km/h
1054 11-11-2008 00:52:02 16 C 7.49 g/m*3 16 C 0 km/h
1055 11-11-2008 01:04:02 16.1 C 7.4 g/m*3 16.1 C 0 km/h
1056 11-11-2008 01:16:02 16.1 C 7.4 g/m*3 16.1 C 0 km/h
1057 11-11-2008 01:28:02 15.9 C 7.45 g/m*3 15.9 C 0 km/h
1058 11-11-2008 01:40:02 15.7 C 7.49 g/m*3 15.7 C 0 km/h
1059 11-11-2008 01:52:02 15.7 C 7.49 g/m*3 15.7 C 0 km/h
1060 11-11-2008 02:04:02 15.4 C 7.36 g/m*3 15.4 C 0 km/h
1061 11-11-2008 02:16:02 15.2 C 7.4 g/m*3 15.2 C 0 km/h
1062 11-11-2008 02:28:02 15.2 C 7.4 g/m*3 15.2 C 0 km/h
1063 11-11-2008 02:40:03 15.3 C 7.31 g/m*3 15.3 C 0 km/h
1064 11-11-2008 02:52:03 15.2 C 7.27 g/m*3 15.2 C 0 km/h
1065 11-11-2008 03:04:03 15.3 C 7.18 g/m*3 15.3 C 0 km/h
1066 11-11-2008 03:16:03 15.1 C 7.1 g/m*3 15.1 C 0 km/h
1067 11-11-2008 03:28:03 14.9 C 7.14 g/m*3 14.9 C 0 km/h
1068 11-11-2008 03:40:03 14.7 C 7.05 g/m*3 14.7 C 0 km/h
1069 11-11-2008 03:52:03 14.6 C 7.01 g/m*3 14.6 C 0 km/h
1070 11-11-2008 04:04:03 14.4 C 6.92 g/m*3 14.4 C 0 km/h
1071 11-11-2008 04:16:03 14.1 C 6.92 g/m*3 14.1 C 0 km/h
1072 11-11-2008 04:28:03 14.1 C 6.92 g/m*3 14.1 C 0 km/h
1073 11-11-2008 04:40:03 14 C 6.88 g/m*3 14 C 0 km/h
1074 11-11-2008 04:52:03 13.6 C 6.94 g/m*3 13.6 C 0 km/h
1075 11-11-2008 05:04:03 13.4 C 6.86 g/m*3 13.4 C 0 km/h
Sensor: Nr:Datum:Temp:Abs-Feuchte:Windchill:Wind:
Aussen-T/F 1076 11-11-2008 05:16:03 13.3 C 6.93 g/m*3 13.3 C 0 km/h
1077 11-11-2008 05:28:03 13.4 C 6.97 g/m*3 13.4 C 0 km/h
1078 11-11-2008 05:40:03 13.5 C 6.9 g/m*3 13.5 C 0 km/h
1079 11-11-2008 05:52:03 13.5 C 6.9 g/m*3 13.5 C 0 km/h
1080 11-11-2008 06:04:03 13.4 C 7.09 g/m*3 13.4 C 0 km/h
1081 11-11-2008 06:16:03 13.3 C 7.16 g/m*3 13.3 C 0 km/h
1082 11-11-2008 06:28:03 13 C 7.37 g/m*3 13 C 0 km/h
1083 11-11-2008 06:40:04 12.7 C 7.57 g/m*3 12.7 C 0 km/h
1084 11-11-2008 06:52:04 12.2 C 7.66 g/m*3 12.2 C 0 km/h
1085 11-11-2008 07:04:02 12 C 8.1 g/m*3 12 C 0 km/h
1086 11-11-2008 07:16:02 12 C 8.21 g/m*3 12 C 0 km/h
1087 11-11-2008 07:28:02 12.1 C 8.26 g/m*3 12.1 C 0 km/h
1088 11-11-2008 07:40:03 13 C 8.17 g/m*3 13 C 0 km/h
1089 11-11-2008 07:52:02 13.3 C 8.09 g/m*3 13.3 C 0 km/h
1090 11-11-2008 08:04:01 13.2 C 8.04 g/m*3 13.2 C 0 km/h
1091 11-11-2008 08:16:02 13.7 C 7.93 g/m*3 13.7 C 0 km/h
1092 11-11-2008 08:28:03 14 C 7.72 g/m*3 14 C 0 km/h
1093 11-11-2008 08:40:01 13.7 C 7.82 g/m*3 13.7 C 0 km/h
1094 11-11-2008 08:52:02 13.8 C 7.98 g/m*3 13.8 C 0 km/h
1095 11-11-2008 09:04:01 13.9 C 8.15 g/m*3 13.9 C 0 km/h
1096 11-11-2008 09:16:02 13.5 C 8.19 g/m*3 13.5 C 0 km/h
1097 11-11-2008 09:28:02 13.5 C 8.42 g/m*3 13.5 C 0 km/h
1098 11-11-2008 09:40:01 13.4 C 8.49 g/m*3 13.4 C 0 km/h
1099 11-11-2008 09:52:02 13.7 C 8.41 g/m*3 13.7 C 0 km/h
1100 11-11-2008 10:04:01 13.8 C 8.22 g/m*3 13.8 C 0 km/h
Sensor: Nr:Datum:Temp:Abs-Feuchte:Windchill:Wind:
Aussen-T/F 1101 11-11-2008 10:16:02 13.4 C 7.9 g/m*3 13.4 C 0 km/h
1102 11-11-2008 10:28:02 13.4 C 7.79 g/m*3 13.4 C 0 km/h
1103 11-11-2008 10:40:01 13.4 C 7.56 g/m*3 13.4 C 0 km/h
1104 11-11-2008 10:52:02 13.5 C 7.6 g/m*3 13.5 C 0 km/h
1105 11-11-2008 11:04:01 13.2 C 6.54 g/m*3 13.2 C 0 km/h
1106 11-11-2008 11:16:02 12 C 6.5 g/m*3 12 C 0 km/h
1107 11-11-2008 11:28:02 11.8 C 6.63 g/m*3 11.8 C 0 km/h
1108 11-11-2008 11:40:02 11.6 C 6.55 g/m*3 11.6 C 0 km/h
1109 11-11-2008 11:52:02 11.8 C 6.31 g/m*3 11.8 C 0 km/h
1110 11-11-2008 12:04:01 11.8 C 6.31 g/m*3 11.8 C 0 km/h
1111 11-11-2008 12:16:02 12 C 6.07 g/m*3 12 C 0 km/h
1112 11-11-2008 12:28:02 12.3 C 5.86 g/m*3 12.3 C 0 km/h
1113 11-11-2008 12:40:01 12.7 C 6.01 g/m*3 12.7 C 0 km/h
1114 11-11-2008 12:52:01 13.1 C 5.93 g/m*3 13.1 C 0 km/h
1115 11-11-2008 13:04:01 13 C 5.56 g/m*3 13 C 0 km/h
1116 11-11-2008 13:16:01 12.9 C 5.75 g/m*3 12.9 C 0 km/h
1117 11-11-2008 13:28:01 13.4 C 5.23 g/m*3 13.4 C 0 km/h
1118 11-11-2008 13:40:01 13.5 C 5.03 g/m*3 13.5 C 0 km/h
1119 11-11-2008 13:52:01 14.1 C 4.73 g/m*3 14.1 C 0 km/h
1120 11-11-2008 14:04:02 13.8 C 4.89 g/m*3 13.8 C 0 km/h
1121 11-11-2008 14:16:01 14.1 C 4.85 g/m*3 14.1 C 0 km/h
1122 11-11-2008 14:28:01 14 C 4.95 g/m*3 14 C 0 km/h
1123 11-11-2008 14:40:02 13.5 C 4.68 g/m*3 13.5 C 0 km/h
1124 11-11-2008 14:52:02 13.1 C 4.56 g/m*3 13.1 C 0 km/h
1125 11-11-2008 15:04:02 13 C 4.54 g/m*3 13 C 0 km/h
Sensor: Nr:Datum:Temp:Abs-Feuchte:Windchill:Wind:
Aussen-T/F 1126 11-11-2008 15:16:02 12.8 C 4.7 g/m*3 12.8 C 0 km/h
1127 11-11-2008 15:28:02 12.5 C 4.73 g/m*3 12.5 C 0 km/h
1128 11-11-2008 15:40:02 12.2 C 4.96 g/m*3 12.2 C 0 km/h
1129 11-11-2008 15:52:02 12.1 C 4.93 g/m*3 12.1 C 0 km/h
1130 11-11-2008 16:04:01 12.1 C 4.93 g/m*3 12.1 C 0 km/h
1131 11-11-2008 16:16:02 12.1 C 4.93 g/m*3 12.1 C 0 km/h
1132 11-11-2008 16:28:03 12.1 C 5.15 g/m*3 12.1 C 0 km/h
1133 11-11-2008 16:40:01 12 C 5.12 g/m*3 12 C 0 km/h
1134 11-11-2008 16:52:01 11.9 C 5.08 g/m*3 11.9 C 0 km/h
1135 11-11-2008 17:04:02 11.9 C 4.98 g/m*3 11.9 C 0 km/h
1136 11-11-2008 17:16:02 11.9 C 4.87 g/m*3 11.9 C 0 km/h
1137 11-11-2008 17:28:03 11.9 C 4.87 g/m*3 11.9 C 0 km/h
1138 11-11-2008 17:40:01 11.7 C 4.92 g/m*3 11.7 C 0 km/h
1139 11-11-2008 17:52:02 11.3 C 4.79 g/m*3 11.3 C 0 km/h
1140 11-11-2008 18:04:01 11.1 C 4.83 g/m*3 11.1 C 0 km/h
1141 11-11-2008 18:16:02 11.3 C 4.79 g/m*3 11.3 C 0 km/h
1142 11-11-2008 18:28:02 11.4 C 4.82 g/m*3 11.4 C 0 km/h
1143 11-11-2008 18:40:01 11.1 C 4.83 g/m*3 11.1 C 0 km/h
1144 11-11-2008 18:52:01 11.2 C 4.87 g/m*3 11.2 C 0 km/h
1145 11-11-2008 19:04:02 11.1 C 4.94 g/m*3 11.1 C 0 km/h
1146 11-11-2008 19:16:01 11.1 C 5.04 g/m*3 11.1 C 0 km/h
1147 11-11-2008 19:28:01 11.1 C 5.14 g/m*3 11.1 C 0 km/h
1148 11-11-2008 19:40:01 11.1 C 5.14 g/m*3 11.1 C 0 km/h
1149 11-11-2008 19:52:01 11.1 C 5.24 g/m*3 11.1 C 0 km/h
1150 11-11-2008 20:04:02 11.1 C 5.24 g/m*3 11.1 C 0 km/h
Sensor: Nr:Datum:Temp:Abs-Feuchte:Windchill:Wind:
Aussen-T/F 1151 11-11-2008 20:16:01 11.1 C 5.24 g/m*3 11.1 C 0 km/h
1152 11-11-2008 20:28:01 11 C 5.31 g/m*3 11 C 0 km/h
1153 11-11-2008 20:40:02 11 C 5.41 g/m*3 11 C 0 km/h
1154 11-11-2008 20:52:02 11 C 5.51 g/m*3 11 C 0 km/h
1155 11-11-2008 21:04:02 10.9 C 5.67 g/m*3 10.9 C 0 km/h
1156 11-11-2008 21:16:02 10.8 C 5.63 g/m*3 10.8 C 0 km/h
1157 11-11-2008 21:28:02 10.8 C 5.73 g/m*3 10.8 C 0 km/h
1158 11-11-2008 21:40:02 10.8 C 5.73 g/m*3 10.8 C 0 km/h
1159 11-11-2008 21:52:02 10.8 C 5.73 g/m*3 10.8 C 0 km/h
1160 11-11-2008 22:04:01 10.7 C 5.8 g/m*3 10.7 C 0 km/h
1161 11-11-2008 22:16:02 10.7 C 5.89 g/m*3 10.7 C 0 km/h
1162 11-11-2008 22:28:02 9.5 C 6.64 g/m*3 9.5 C 0 km/h
1163 11-11-2008 22:40:02 8.9 C 7.1 g/m*3 8.9 C 0 km/h
1164 11-11-2008 22:52:02 8.7 C 7.26 g/m*3 8.7 C 0 km/h
1165 11-11-2008 23:04:01 8.5 C 7.26 g/m*3 8.5 C 0 km/h
1166 11-11-2008 23:16:02 8.4 C 7.21 g/m*3 8.4 C 0 km/h
1167 11-11-2008 23:28:02 8.3 C 7.25 g/m*3 8.3 C 0 km/h
1168 11-11-2008 23:40:01 8.3 C 7.33 g/m*3 8.3 C 0 km/h
1169 11-11-2008 23:52:02 8.3 C 7.33 g/m*3 8.3 C 0 km/h
1170 12-11-2008 00:04:02 8.3 C 7.33 g/m*3 8.3 C 0 km/h
1171 12-11-2008 00:16:03 8.2 C 7.37 g/m*3 8.2 C 0 km/h
1172 12-11-2008 00:28:03 8.1 C 7.32 g/m*3 8.1 C 0 km/h
1173 12-11-2008 00:40:02 8.2 C 7.45 g/m*3 8.2 C 0 km/h
1174 12-11-2008 00:52:01 8.1 C 7.41 g/m*3 8.1 C 0 km/h
1175 12-11-2008 01:04:02 8.3 C 7.5 g/m*3 8.3 C 0 km/h
Sensor: Nr:Datum:Temp:Abs-Feuchte:Windchill:Wind:
Aussen-T/F 1176 12-11-2008 01:16:01 8.3 C 7.5 g/m*3 8.3 C 0 km/h
1177 12-11-2008 01:28:01 8.4 C 7.55 g/m*3 8.4 C 0 km/h
1178 12-11-2008 01:40:02 8.5 C 7.51 g/m*3 8.5 C 0 km/h
1179 12-11-2008 01:52:02 8.5 C 7.51 g/m*3 8.5 C 0 km/h
1180 12-11-2008 02:04:02 8.2 C 7.2 g/m*3 8.2 C 0 km/h
1181 12-11-2008 02:16:02 8.1 C 7.16 g/m*3 8.1 C 0 km/h
1182 12-11-2008 02:28:02 8.1 C 7.16 g/m*3 8.1 C 0 km/h
1183 12-11-2008 02:40:02 8 C 7.03 g/m*3 8 C 0 km/h
1184 12-11-2008 02:53:03 8.1 C 6.99 g/m*3 8.1 C 0 km/h
1185 12-11-2008 03:05:04 8 C 6.94 g/m*3 8 C 0 km/h
1186 12-11-2008 03:17:03 7.6 C 6.85 g/m*3 7.6 C 0 km/h
1187 12-11-2008 03:29:03 7.5 C 6.88 g/m*3 7.5 C 0 km/h
1188 12-11-2008 03:41:01 7.3 C 6.79 g/m*3 7.3 C 0 km/h
1189 12-11-2008 03:53:01 7.1 C 6.79 g/m*3 7.1 C 0 km/h
1190 12-11-2008 04:05:02 7.3 C 6.95 g/m*3 7.3 C 0 km/h
1191 12-11-2008 04:17:02 7.4 C 7 g/m*3 7.4 C 0 km/h
1192 12-11-2008 04:29:02 7.2 C 6.91 g/m*3 7.2 C 0 km/h
1193 12-11-2008 04:41:02 7.5 C 7.04 g/m*3 7.5 C 0 km/h
1194 12-11-2008 04:53:02 7.7 C 7.14 g/m*3 7.7 C 0 km/h
1195 12-11-2008 05:05:02 7.9 C 7.15 g/m*3 7.9 C 0 km/h
1196 12-11-2008 05:17:01 7.9 C 7.15 g/m*3 7.9 C 0 km/h
1197 12-11-2008 05:29:01 7.8 C 7.1 g/m*3 7.8 C 0 km/h
1198 12-11-2008 05:41:02 7.6 C 7.01 g/m*3 7.6 C 0 km/h
1199 12-11-2008 05:53:02 7.4 C 6.92 g/m*3 7.4 C 0 km/h
1200 12-11-2008 06:05:02 7.4 C 6.92 g/m*3 7.4 C 0 km/h
Sensor: Nr:Datum:Temp:Abs-Feuchte:Windchill:Wind:
Aussen-T/F 1201 12-11-2008 06:17:02 7.5 C 6.96 g/m*3 7.5 C 0 km/h
1202 12-11-2008 06:29:02 7.8 C 6.94 g/m*3 7.8 C 0 km/h
1203 12-11-2008 06:41:02 8 C 6.7 g/m*3 8 C 0 km/h
1204 12-11-2008 06:53:01 8 C 6.7 g/m*3 8 C 0 km/h
1205 12-11-2008 07:05:02 7.8 C 6.69 g/m*3 7.8 C 0 km/h
1206 12-11-2008 07:17:01 7.5 C 6.56 g/m*3 7.5 C 0 km/h
1207 12-11-2008 07:29:01 7.4 C 6.44 g/m*3 7.4 C 0 km/h
1208 12-11-2008 07:41:01 7.2 C 6.44 g/m*3 7.2 C 0 km/h
1209 12-11-2008 07:53:02 7.6 C 6.69 g/m*3 7.6 C 0 km/h
1210 12-11-2008 08:05:02 7.8 C 6.61 g/m*3 7.8 C 0 km/h
1211 12-11-2008 08:17:02 7.9 C 6.49 g/m*3 7.9 C 0 km/h
1212 12-11-2008 08:29:02 8 C 6.45 g/m*3 8 C 0 km/h
1213 12-11-2008 08:41:02 8.1 C 6.41 g/m*3 8.1 C 0 km/h
1214 12-11-2008 08:53:02 7.9 C 6.49 g/m*3 7.9 C 0 km/h
1215 12-11-2008 09:05:02 7.8 C 6.45 g/m*3 7.8 C 0 km/h
1216 12-11-2008 09:17:02 7.6 C 6.44 g/m*3 7.6 C 0 km/h
1217 12-11-2008 09:29:02 7.7 C 6.57 g/m*3 7.7 C 0 km/h
1218 12-11-2008 09:41:02 8.2 C 6.7 g/m*3 8.2 C 0 km/h
1219 12-11-2008 09:53:02 8.2 C 6.53 g/m*3 8.2 C 0 km/h
1220 12-11-2008 10:05:01 8.2 C 6.53 g/m*3 8.2 C 0 km/h
1221 12-11-2008 10:17:02 8.9 C 6.57 g/m*3 8.9 C 0 km/h
1222 12-11-2008 10:29:02 9.3 C 6.38 g/m*3 9.3 C 0 km/h
1223 12-11-2008 10:41:01 9.4 C 6.15 g/m*3 9.4 C 0 km/h
1224 12-11-2008 10:53:02 9.6 C 6.32 g/m*3 9.6 C 0 km/h
1225 12-11-2008 11:05:01 9.8 C 6.31 g/m*3 9.8 C 0 km/h
Sensor: Nr:Datum:Temp:Abs-Feuchte:Windchill:Wind:
Aussen-T/F 1226 12-11-2008 11:17:02 10.2 C 6.38 g/m*3 10.2 C 0 km/h
1227 12-11-2008 11:29:02 10.7 C 6.48 g/m*3 10.7 C 0 km/h
1228 12-11-2008 11:41:01 10.6 C 6.44 g/m*3 10.6 C 0 km/h
1229 12-11-2008 11:53:01 9.9 C 6.63 g/m*3 9.9 C 0 km/h
1230 12-11-2008 12:05:01 10.4 C 6.84 g/m*3 10.4 C 0 km/h
1231 12-11-2008 12:17:02 10.5 C 6.89 g/m*3 10.5 C 0 km/h
1232 12-11-2008 12:29:02 10.4 C 6.65 g/m*3 10.4 C 0 km/h
1233 12-11-2008 12:41:01 10.9 C 6.76 g/m*3 10.9 C 0 km/h
1234 12-11-2008 12:53:01 11.2 C 6.39 g/m*3 11.2 C 0 km/h
1235 12-11-2008 13:05:01 11.8 C 6.31 g/m*3 11.8 C 0 km/h
1236 12-11-2008 13:17:01 11.7 C 6.38 g/m*3 11.7 C 0 km/h
1237 12-11-2008 13:29:01 11.1 C 6.04 g/m*3 11.1 C 0 km/h
1238 12-11-2008 13:41:01 11.5 C 6.09 g/m*3 11.5 C 0 km/h
1239 12-11-2008 13:53:01 11.5 C 5.89 g/m*3 11.5 C 0 km/h
1240 12-11-2008 14:05:02 11.2 C 5.88 g/m*3 11.2 C 0 km/h
1241 12-11-2008 14:17:01 11.9 C 5.93 g/m*3 11.9 C 0 km/h
1242 12-11-2008 14:29:01 11.7 C 5.75 g/m*3 11.7 C 0 km/h
1243 12-11-2008 14:41:02 11.2 C 5.78 g/m*3 11.2 C 0 km/h
1244 12-11-2008 14:53:02 10.9 C 5.97 g/m*3 10.9 C 0 km/h
1245 12-11-2008 15:05:02 12 C 5.97 g/m*3 12 C 0 km/h
1246 12-11-2008 15:17:01 12.3 C 5.86 g/m*3 12.3 C 0 km/h
1247 12-11-2008 15:29:01 11.8 C 5.79 g/m*3 11.8 C 0 km/h
1248 12-11-2008 15:41:02 11.1 C 5.84 g/m*3 11.1 C 0 km/h
1249 12-11-2008 15:53:02 10.7 C 5.89 g/m*3 10.7 C 0 km/h
1250 12-11-2008 16:05:02 10.8 C 5.93 g/m*3 10.8 C 0 km/h
Sensor: Nr:Datum:Temp:Abs-Feuchte:Windchill:Wind:
Aussen-T/F 1251 12-11-2008 16:17:02 10.8 C 5.93 g/m*3 10.8 C 0 km/h
1252 12-11-2008 16:29:02 10.4 C 5.88 g/m*3 10.4 C 0 km/h
1253 12-11-2008 16:41:02 9.9 C 5.98 g/m*3 9.9 C 0 km/h
1254 12-11-2008 16:53:02 9.6 C 5.95 g/m*3 9.6 C 0 km/h
1255 12-11-2008 17:05:01 9.5 C 6.01 g/m*3 9.5 C 0 km/h
1256 12-11-2008 17:17:02 9.2 C 6.07 g/m*3 9.2 C 0 km/h
1257 12-11-2008 17:29:02 8.7 C 6.05 g/m*3 8.7 C 0 km/h
1258 12-11-2008 17:41:01 8.3 C 5.98 g/m*3 8.3 C 0 km/h
1259 12-11-2008 17:53:03 8.1 C 6.07 g/m*3 8.1 C 0 km/h
1260 12-11-2008 18:05:02 7.8 C 6.04 g/m*3 7.8 C 0 km/h
1261 12-11-2008 18:17:02 7.8 C 6.2 g/m*3 7.8 C 0 km/h
1262 12-11-2008 18:29:02 7.6 C 6.2 g/m*3 7.6 C 0 km/h
1263 12-11-2008 18:41:02 7.6 C 6.2 g/m*3 7.6 C 0 km/h
1264 12-11-2008 18:53:03 7.8 C 6.28 g/m*3 7.8 C 0 km/h
1265 12-11-2008 19:05:02 7.7 C 6.24 g/m*3 7.7 C 0 km/h
1266 12-11-2008 19:17:02 7.6 C 6.2 g/m*3 7.6 C 0 km/h
1267 12-11-2008 19:29:02 7.8 C 6.37 g/m*3 7.8 C 0 km/h
1268 12-11-2008 19:41:02 7.7 C 6.32 g/m*3 7.7 C 0 km/h
1269 12-11-2008 19:53:02 7.8 C 6.45 g/m*3 7.8 C 0 km/h
1270 12-11-2008 20:05:01 7.9 C 6.41 g/m*3 7.9 C 0 km/h
1271 12-11-2008 20:17:02 7.9 C 6.41 g/m*3 7.9 C 0 km/h
1272 12-11-2008 20:29:02 7.8 C 6.45 g/m*3 7.8 C 0 km/h
1273 12-11-2008 20:41:01 7.7 C 6.41 g/m*3 7.7 C 0 km/h
1274 12-11-2008 20:53:02 7.4 C 6.28 g/m*3 7.4 C 0 km/h
1275 12-11-2008 21:05:01 7.1 C 6.24 g/m*3 7.1 C 0 km/h
Sensor: Nr:Datum:Temp:Abs-Feuchte:Windchill:Wind:
Aussen-T/F 1276 12-11-2008 21:17:02 7.1 C 6.32 g/m*3 7.1 C 0 km/h
1277 12-11-2008 21:29:02 7.1 C 6.32 g/m*3 7.1 C 0 km/h
1278 12-11-2008 21:41:01 7.1 C 6.32 g/m*3 7.1 C 0 km/h
1279 12-11-2008 21:53:01 7.1 C 6.4 g/m*3 7.1 C 0 km/h
1280 12-11-2008 22:05:02 7.2 C 6.44 g/m*3 7.2 C 0 km/h
1281 12-11-2008 22:17:02 7.1 C 6.32 g/m*3 7.1 C 0 km/h
1282 12-11-2008 22:29:02 6.8 C 6.27 g/m*3 6.8 C 0 km/h
1283 12-11-2008 22:41:01 6.3 C 6.14 g/m*3 6.3 C 0 km/h
1284 12-11-2008 22:53:01 6.2 C 6.18 g/m*3 6.2 C 0 km/h
1285 12-11-2008 23:05:02 6 C 6.1 g/m*3 6 C 0 km/h
1286 12-11-2008 23:17:01 5.7 C 6.05 g/m*3 5.7 C 0 km/h
1287 12-11-2008 23:29:01 5.5 C 6.04 g/m*3 5.5 C 0 km/h
1288 12-11-2008 23:41:02 5.2 C 5.92 g/m*3 5.2 C 0 km/h
1289 12-11-2008 23:53:02 5 C 5.84 g/m*3 5 C 0 km/h
1290 13-11-2008 00:05:02 5 C 5.91 g/m*3 5 C 0 km/h
1291 13-11-2008 00:17:02 4.8 C 5.9 g/m*3 4.8 C 0 km/h
1292 13-11-2008 00:29:02 4.7 C 5.93 g/m*3 4.7 C 0 km/h
1293 13-11-2008 00:41:02 4.8 C 6.04 g/m*3 4.8 C 0 km/h
1294 13-11-2008 00:53:02 4.8 C 6.04 g/m*3 4.8 C 0 km/h
1295 13-11-2008 01:05:02 4.7 C 6.06 g/m*3 4.7 C 0 km/h
1296 13-11-2008 01:17:02 4.9 C 6.21 g/m*3 4.9 C 0 km/h
1297 13-11-2008 01:29:02 4.8 C 6.17 g/m*3 4.8 C 0 km/h
1298 13-11-2008 01:41:02 4.7 C 6.06 g/m*3 4.7 C 0 km/h
1299 13-11-2008 01:53:02 4.5 C 5.98 g/m*3 4.5 C 0 km/h
1300 13-11-2008 02:05:03 4.2 C 5.86 g/m*3 4.2 C 0 km/h
Sensor: Nr:Datum:Temp:Abs-Feuchte:Windchill:Wind:
Aussen-T/F 1301 13-11-2008 02:17:02 4 C 5.79 g/m*3 4 C 0 km/h
1302 13-11-2008 02:29:02 3.7 C 5.8 g/m*3 3.7 C 0 km/h
1303 13-11-2008 02:41:03 3.7 C 5.8 g/m*3 3.7 C 0 km/h
1304 13-11-2008 02:53:01 3.6 C 5.82 g/m*3 3.6 C 0 km/h
1305 13-11-2008 03:05:01 3.6 C 5.82 g/m*3 3.6 C 0 km/h
1306 13-11-2008 03:17:02 3.6 C 5.88 g/m*3 3.6 C 0 km/h
1307 13-11-2008 03:29:02 3.7 C 5.92 g/m*3 3.7 C 0 km/h
1308 13-11-2008 03:41:02 3.6 C 5.88 g/m*3 3.6 C 0 km/h
1309 13-11-2008 03:53:02 3.5 C 5.84 g/m*3 3.5 C 0 km/h
1310 13-11-2008 04:05:01 3.8 C 5.96 g/m*3 3.8 C 0 km/h
1311 13-11-2008 04:17:02 3.9 C 6 g/m*3 3.9 C 0 km/h
1312 13-11-2008 04:29:02 3.8 C 5.96 g/m*3 3.8 C 0 km/h
1313 13-11-2008 04:41:01 4 C 6.04 g/m*3 4 C 0 km/h
1314 13-11-2008 04:53:02 4.2 C 6.06 g/m*3 4.2 C 0 km/h
1315 13-11-2008 05:05:01 4.3 C 6.1 g/m*3 4.3 C 0 km/h
1316 13-11-2008 05:17:02 4.5 C 6.18 g/m*3 4.5 C 0 km/h
1317 13-11-2008 05:29:02 4.5 C 6.11 g/m*3 4.5 C 0 km/h
1318 13-11-2008 05:41:01 4.6 C 6.15 g/m*3 4.6 C 0 km/h
1319 13-11-2008 05:53:02 4.8 C 6.17 g/m*3 4.8 C 0 km/h
1320 13-11-2008 06:05:01 4.7 C 6.13 g/m*3 4.7 C 0 km/h
1321 13-11-2008 06:17:02 4.7 C 6.13 g/m*3 4.7 C 0 km/h
1322 13-11-2008 06:29:02 4.8 C 6.17 g/m*3 4.8 C 0 km/h
1323 13-11-2008 06:41:01 4.8 C 6.17 g/m*3 4.8 C 0 km/h
1324 13-11-2008 06:53:01 4.8 C 6.17 g/m*3 4.8 C 0 km/h
1325 13-11-2008 07:05:01 4.8 C 6.1 g/m*3 4.8 C 0 km/h
Sensor: Nr:Datum:Temp:Abs-Feuchte:Windchill:Wind:
Aussen-T/F 1326 13-11-2008 07:17:02 4.8 C 6.1 g/m*3 4.8 C 0 km/h
1327 13-11-2008 07:29:02 5 C 6.18 g/m*3 5 C 0 km/h
1328 13-11-2008 07:41:01 5.1 C 6.22 g/m*3 5.1 C 0 km/h
1329 13-11-2008 07:53:01 5.1 C 6.16 g/m*3 5.1 C 0 km/h
1330 13-11-2008 08:05:05 5 C 6.12 g/m*3 5 C 0 km/h
1331 13-11-2008 08:17:02 5.1 C 6.16 g/m*3 5.1 C 0 km/h
1332 13-11-2008 08:29:02 5.3 C 6.24 g/m*3 5.3 C 0 km/h
1333 13-11-2008 08:41:01 5.4 C 6.28 g/m*3 5.4 C 0 km/h
1334 13-11-2008 08:53:01 5.6 C 6.36 g/m*3 5.6 C 0 km/h
1335 13-11-2008 09:05:01 5.7 C 6.33 g/m*3 5.7 C 0 km/h
1336 13-11-2008 09:17:02 5.8 C 6.3 g/m*3 5.8 C 0 km/h
1337 13-11-2008 09:29:02 6 C 6.31 g/m*3 6 C 0 km/h
1338 13-11-2008 09:41:01 6.3 C 6.37 g/m*3 6.3 C 0 km/h
1339 13-11-2008 09:53:01 6.6 C 6.49 g/m*3 6.6 C 0 km/h
1340 13-11-2008 10:05:02 6.9 C 6.54 g/m*3 6.9 C 0 km/h
1341 13-11-2008 10:17:01 7 C 6.35 g/m*3 7 C 0 km/h
1342 13-11-2008 10:29:01 7.2 C 6.2 g/m*3 7.2 C 0 km/h
1343 13-11-2008 10:41:02 7.3 C 6.24 g/m*3 7.3 C 0 km/h
1344 13-11-2008 10:53:01 7.1 C 6.16 g/m*3 7.1 C 0 km/h
1345 13-11-2008 11:05:02 7 C 6.12 g/m*3 7 C 0 km/h
1346 13-11-2008 11:17:01 7.5 C 6.32 g/m*3 7.5 C 0 km/h
1347 13-11-2008 11:29:01 8.1 C 6.24 g/m*3 8.1 C 0 km/h
1348 13-11-2008 11:41:02 8.3 C 6.15 g/m*3 8.3 C 0 km/h
1349 13-11-2008 11:53:01 8.7 C 6.23 g/m*3 8.7 C 0 km/h
1350 13-11-2008 12:05:02 8.6 C 6.1 g/m*3 8.6 C 0 km/h
Sensor: Nr:Datum:Temp:Abs-Feuchte:Windchill:Wind:
Aussen-T/F 1351 13-11-2008 12:17:02 8.8 C 6.18 g/m*3 8.8 C 0 km/h
1352 13-11-2008 12:29:02 9 C 6.08 g/m*3 9 C 0 km/h
1353 13-11-2008 12:41:02 9.2 C 6.07 g/m*3 9.2 C 0 km/h
1354 13-11-2008 12:53:01 9.3 C 6.02 g/m*3 9.3 C 0 km/h
1355 13-11-2008 13:05:02 9.4 C 5.97 g/m*3 9.4 C 0 km/h
1356 13-11-2008 13:17:01 9.5 C 5.92 g/m*3 9.5 C 0 km/h
1357 13-11-2008 13:29:01 9.6 C 5.95 g/m*3 9.6 C 0 km/h
1358 13-11-2008 13:41:02 9.6 C 5.86 g/m*3 9.6 C 0 km/h
1359 13-11-2008 13:53:01 9.8 C 5.85 g/m*3 9.8 C 0 km/h
1360 13-11-2008 14:05:02 9.9 C 5.79 g/m*3 9.9 C 0 km/h
1361 13-11-2008 14:17:01 9.9 C 5.79 g/m*3 9.9 C 0 km/h
1362 13-11-2008 14:29:01 10 C 5.83 g/m*3 10 C 0 km/h
1363 13-11-2008 14:41:02 10 C 5.83 g/m*3 10 C 0 km/h
1364 13-11-2008 14:53:01 10 C 5.83 g/m*3 10 C 0 km/h
1365 13-11-2008 15:05:01 9.8 C 5.85 g/m*3 9.8 C 0 km/h
1366 13-11-2008 15:17:01 9.8 C 5.94 g/m*3 9.8 C 0 km/h
1367 13-11-2008 15:29:01 9.8 C 5.94 g/m*3 9.8 C 0 km/h
1368 13-11-2008 15:41:02 9.7 C 5.9 g/m*3 9.7 C 0 km/h
1369 13-11-2008 15:53:02 9.6 C 5.95 g/m*3 9.6 C 0 km/h
1370 13-11-2008 16:05:01 9.5 C 5.92 g/m*3 9.5 C 0 km/h
1371 13-11-2008 16:17:02 9.4 C 6.06 g/m*3 9.4 C 0 km/h
1372 13-11-2008 16:29:02 9.2 C 6.16 g/m*3 9.2 C 0 km/h
1373 13-11-2008 16:41:01 8.9 C 6.22 g/m*3 8.9 C 0 km/h
1374 13-11-2008 16:53:01 8.7 C 6.23 g/m*3 8.7 C 0 km/h
1375 13-11-2008 17:05:01 8.5 C 6.23 g/m*3 8.5 C 0 km/h
Sensor: Nr:Datum:Temp:Abs-Feuchte:Windchill:Wind:
Aussen-T/F 1376 13-11-2008 17:17:01 8.4 C 6.28 g/m*3 8.4 C 0 km/h
1377 13-11-2008 17:29:01 8.2 C 6.28 g/m*3 8.2 C 0 km/h
1378 13-11-2008 17:41:01 8.2 C 6.2 g/m*3 8.2 C 0 km/h
1379 13-11-2008 17:53:01 8.1 C 6.16 g/m*3 8.1 C 0 km/h
1380 13-11-2008 18:05:02 8.1 C 6.16 g/m*3 8.1 C 0 km/h
1381 13-11-2008 18:17:01 7.9 C 6.08 g/m*3 7.9 C 0 km/h
1382 13-11-2008 18:29:01 7.7 C 6 g/m*3 7.7 C 0 km/h
1383 13-11-2008 18:41:02 7.7 C 6 g/m*3 7.7 C 0 km/h
1384 13-11-2008 18:53:01 7.6 C 6.04 g/m*3 7.6 C 0 km/h
1385 13-11-2008 19:05:02 7.7 C 6.08 g/m*3 7.7 C 0 km/h
1386 13-11-2008 19:17:01 7.6 C 6.04 g/m*3 7.6 C 0 km/h
1387 13-11-2008 19:29:01 7.5 C 6 g/m*3 7.5 C 0 km/h
1388 13-11-2008 19:41:02 7.3 C 5.93 g/m*3 7.3 C 0 km/h
1389 13-11-2008 19:53:02 7.3 C 6 g/m*3 7.3 C 0 km/h
1390 13-11-2008 20:05:01 7.1 C 5.93 g/m*3 7.1 C 0 km/h
1391 13-11-2008 20:17:01 7.1 C 6.01 g/m*3 7.1 C 0 km/h
1392 13-11-2008 20:29:01 7 C 5.97 g/m*3 7 C 0 km/h
1393 13-11-2008 20:41:01 6.9 C 6 g/m*3 6.9 C 0 km/h
1394 13-11-2008 20:53:02 6.5 C 5.85 g/m*3 6.5 C 0 km/h
1395 13-11-2008 21:05:01 6.1 C 5.7 g/m*3 6.1 C 0 km/h
1396 13-11-2008 21:17:02 5.9 C 5.77 g/m*3 5.9 C 0 km/h
1397 13-11-2008 21:29:02 5.8 C 5.73 g/m*3 5.8 C 0 km/h
1398 13-11-2008 21:41:01 5.6 C 5.73 g/m*3 5.6 C 0 km/h
1399 13-11-2008 21:53:01 5.4 C 5.65 g/m*3 5.4 C 0 km/h
1400 13-11-2008 22:05:02 5.1 C 5.61 g/m*3 5.1 C 0 km/h
Sensor: Nr:Datum:Temp:Abs-Feuchte:Windchill:Wind:
Aussen-T/F 1401 13-11-2008 22:17:01 4.8 C 5.63 g/m*3 4.8 C 0 km/h
1402 13-11-2008 22:29:01 4.6 C 5.56 g/m*3 4.6 C 0 km/h
1403 13-11-2008 22:41:02 4.4 C 5.55 g/m*3 4.4 C 0 km/h
1404 13-11-2008 22:53:01 4.3 C 5.51 g/m*3 4.3 C 0 km/h
1405 13-11-2008 23:05:01 4.4 C 5.62 g/m*3 4.4 C 0 km/h
1406 13-11-2008 23:17:02 4.2 C 5.61 g/m*3 4.2 C 0 km/h
1407 13-11-2008 23:29:02 3.8 C 5.46 g/m*3 3.8 C 0 km/h
1408 13-11-2008 23:41:02 3.7 C 5.48 g/m*3 3.7 C 0 km/h
1409 13-11-2008 23:53:01 3.5 C 5.41 g/m*3 3.5 C 0 km/h
1410 14-11-2008 00:05:02 3.5 C 5.47 g/m*3 3.5 C 0 km/h
1411 14-11-2008 00:17:02 3.5 C 5.47 g/m*3 3.5 C 0 km/h
1412 14-11-2008 00:29:02 3.6 C 5.57 g/m*3 3.6 C 0 km/h
1413 14-11-2008 00:41:02 3.6 C 5.57 g/m*3 3.6 C 0 km/h
1414 14-11-2008 00:53:02 3.4 C 5.5 g/m*3 3.4 C 0 km/h
1415 14-11-2008 01:05:02 3.1 C 5.39 g/m*3 3.1 C 0 km/h
1416 14-11-2008 01:17:02 2.7 C 5.24 g/m*3 2.7 C 0 km/h
1417 14-11-2008 01:29:02 2.6 C 5.27 g/m*3 2.6 C 0 km/h
1418 14-11-2008 01:41:01 2.6 C 5.27 g/m*3 2.6 C 0 km/h
1419 14-11-2008 01:53:01 2.5 C 5.23 g/m*3 2.5 C 0 km/h
1420 14-11-2008 02:05:01 2.2 C 5.13 g/m*3 2.2 C 0 km/h
1421 14-11-2008 02:17:01 2.2 C 5.13 g/m*3 2.2 C 0 km/h
1422 14-11-2008 02:29:01 2.1 C 5.09 g/m*3 2.1 C 0 km/h
1423 14-11-2008 02:41:01 2.5 C 5.29 g/m*3 2.5 C 0 km/h
1424 14-11-2008 02:54:06 2.3 C 5.22 g/m*3 2.3 C 0 km/h
1425 14-11-2008 03:06:06 2.5 C 5.29 g/m*3 2.5 C 0 km/h
Sensor: Nr:Datum:Temp:Abs-Feuchte:Windchill:Wind:
Aussen-T/F 1426 14-11-2008 03:18:07 2.3 C 5.22 g/m*3 2.3 C 0 km/h
1427 14-11-2008 03:30:07 2 C 5.11 g/m*3 2 C 0 km/h
1428 14-11-2008 03:42:02 1.9 C 5.13 g/m*3 1.9 C 0 km/h
1429 14-11-2008 03:54:02 1.7 C 5.06 g/m*3 1.7 C 0 km/h
1430 14-11-2008 04:06:02 1.9 C 5.19 g/m*3 1.9 C 0 km/h
1431 14-11-2008 04:18:02 1.8 C 5.15 g/m*3 1.8 C 0 km/h
1432 14-11-2008 04:30:02 1.9 C 5.19 g/m*3 1.9 C 0 km/h
1433 14-11-2008 04:42:02 2 C 5.22 g/m*3 2 C 0 km/h
1434 14-11-2008 04:54:02 2 C 5.22 g/m*3 2 C 0 km/h
1435 14-11-2008 05:06:02 2 C 5.28 g/m*3 2 C 0 km/h
1436 14-11-2008 05:18:02 2.1 C 5.31 g/m*3 2.1 C 0 km/h
1437 14-11-2008 05:30:02 2.2 C 5.35 g/m*3 2.2 C 0 km/h
1438 14-11-2008 05:42:02 2.2 C 5.35 g/m*3 2.2 C 0 km/h
1439 14-11-2008 05:54:01 2.2 C 5.35 g/m*3 2.2 C 0 km/h
1440 14-11-2008 06:06:02 2.3 C 5.39 g/m*3 2.3 C 0 km/h
1441 14-11-2008 06:18:02 2.2 C 5.29 g/m*3 2.2 C 0 km/h
1442 14-11-2008 06:30:02 2.1 C 5.26 g/m*3 2.1 C 0 km/h
1443 14-11-2008 06:42:01 2 C 5.22 g/m*3 2 C 0 km/h
1444 14-11-2008 06:54:01 1.8 C 5.15 g/m*3 1.8 C 0 km/h
1445 14-11-2008 07:06:02 1.7 C 5.06 g/m*3 1.7 C 0 km/h
1446 14-11-2008 07:18:02 1.5 C 4.99 g/m*3 1.5 C 0 km/h
1447 14-11-2008 07:30:02 1.4 C 4.91 g/m*3 1.4 C 0 km/h
1448 14-11-2008 07:42:02 1.6 C 5.03 g/m*3 1.6 C 0 km/h
1449 14-11-2008 07:54:02 1.9 C 5.13 g/m*3 1.9 C 0 km/h
1450 14-11-2008 08:06:02 2 C 5.11 g/m*3 2 C 0 km/h
Sensor: Nr:Datum:Temp:Abs-Feuchte:Windchill:Wind:
Aussen-T/F 1451 14-11-2008 08:18:01 2.2 C 5.18 g/m*3 2.2 C 0 km/h
1452 14-11-2008 08:30:01 2.1 C 5.09 g/m*3 2.1 C 0 km/h
1453 14-11-2008 08:42:02 2.2 C 5.13 g/m*3 2.2 C 0 km/h
1454 14-11-2008 08:54:02 2.5 C 5.17 g/m*3 2.5 C 0 km/h
1455 14-11-2008 09:06:02 2.9 C 5.26 g/m*3 2.9 C 0 km/h
1456 14-11-2008 09:18:02 3.3 C 5.34 g/m*3 3.3 C 0 km/h
1457 14-11-2008 09:30:02 3.6 C 5.45 g/m*3 3.6 C 0 km/h
1458 14-11-2008 09:42:02 3.9 C 5.49 g/m*3 3.9 C 0 km/h
1459 14-11-2008 09:54:02 4.2 C 5.48 g/m*3 4.2 C 0 km/h
1460 14-11-2008 10:06:01 4.5 C 5.52 g/m*3 4.5 C 0 km/h
1461 14-11-2008 10:18:02 4.7 C 5.53 g/m*3 4.7 C 0 km/h
1462 14-11-2008 10:30:02 4.6 C 5.29 g/m*3 4.6 C 0 km/h
1463 14-11-2008 10:42:01 5.1 C 5.27 g/m*3 5.1 C 0 km/h
1464 14-11-2008 10:54:03 5.6 C 5.16 g/m*3 5.6 C 0 km/h
1465 14-11-2008 11:06:02 5.7 C 5.12 g/m*3 5.7 C 0 km/h
1466 14-11-2008 11:18:02 6 C 5.23 g/m*3 6 C 0 km/h
1467 14-11-2008 11:30:02 6.8 C 4.97 g/m*3 6.8 C 0 km/h
1468 14-11-2008 11:42:02 7.5 C 4.72 g/m*3 7.5 C 0 km/h
1469 14-11-2008 11:54:02 8.2 C 4.61 g/m*3 8.2 C 0 km/h
1470 14-11-2008 12:06:02 8.8 C 4.44 g/m*3 8.8 C 0 km/h
1471 14-11-2008 12:18:02 9 C 4.32 g/m*3 9 C 0 km/h
1472 14-11-2008 12:30:02 9 C 4.32 g/m*3 9 C 0 km/h
1473 14-11-2008 12:42:02 8.9 C 4.38 g/m*3 8.9 C 0 km/h
1474 14-11-2008 12:54:02 9 C 4.41 g/m*3 9 C 0 km/h
1475 14-11-2008 13:06:02 8.9 C 4.38 g/m*3 8.9 C 0 km/h
Sensor: Nr:Datum:Temp:Abs-Feuchte:Windchill:Wind:
Aussen-T/F 1476 14-11-2008 13:18:02 9.1 C 4.35 g/m*3 9.1 C 0 km/h
1477 14-11-2008 13:30:02 9.1 C 4.35 g/m*3 9.1 C 0 km/h
1478 14-11-2008 13:42:02 8.9 C 4.38 g/m*3 8.9 C 0 km/h
1479 14-11-2008 13:54:01 8.8 C 4.44 g/m*3 8.8 C 0 km/h
1480 14-11-2008 14:06:02 8.8 C 4.61 g/m*3 8.8 C 0 km/h
1481 14-11-2008 14:18:02 8.7 C 4.84 g/m*3 8.7 C 0 km/h
1482 14-11-2008 14:30:02 8.6 C 4.81 g/m*3 8.6 C 0 km/h
1483 14-11-2008 14:42:02 8.5 C 4.87 g/m*3 8.5 C 0 km/h
1484 14-11-2008 14:54:02 8.5 C 4.95 g/m*3 8.5 C 0 km/h
1485 14-11-2008 15:06:02 8.2 C 5.19 g/m*3 8.2 C 0 km/h
1486 14-11-2008 15:18:01 7.9 C 5.5 g/m*3 7.9 C 0 km/h
1487 14-11-2008 15:30:01 7.8 C 5.63 g/m*3 7.8 C 0 km/h
1488 14-11-2008 15:42:02 7.6 C 5.64 g/m*3 7.6 C 0 km/h
1489 14-11-2008 15:54:02 7.5 C 5.76 g/m*3 7.5 C 0 km/h
1490 14-11-2008 16:06:02 7.8 C 5.79 g/m*3 7.8 C 0 km/h
1491 14-11-2008 16:18:02 7.9 C 5.83 g/m*3 7.9 C 0 km/h
1492 14-11-2008 16:30:02 8 C 5.87 g/m*3 8 C 0 km/h
1493 14-11-2008 16:42:02 8.1 C 5.82 g/m*3 8.1 C 0 km/h
1494 14-11-2008 16:54:02 8.1 C 5.74 g/m*3 8.1 C 0 km/h
1495 14-11-2008 17:06:02 8.1 C 5.82 g/m*3 8.1 C 0 km/h
1496 14-11-2008 17:18:01 8.1 C 5.82 g/m*3 8.1 C 0 km/h
1497 14-11-2008 17:30:01 8.1 C 5.82 g/m*3 8.1 C 0 km/h
1498 14-11-2008 17:42:02 8.1 C 5.74 g/m*3 8.1 C 0 km/h
1499 14-11-2008 17:54:02 8.1 C 5.82 g/m*3 8.1 C 0 km/h
1500 14-11-2008 18:06:02 8.1 C 5.82 g/m*3 8.1 C 0 km/h
Sensor: Nr:Datum:Temp:Abs-Feuchte:Windchill:Wind:
Aussen-T/F 1501 14-11-2008 18:18:02 8.1 C 5.74 g/m*3 8.1 C 0 km/h
1502 14-11-2008 18:30:02 8.1 C 5.74 g/m*3 8.1 C 0 km/h
1503 14-11-2008 18:42:02 8.1 C 5.74 g/m*3 8.1 C 0 km/h
1504 14-11-2008 18:54:02 8.1 C 5.74 g/m*3 8.1 C 0 km/h
1505 14-11-2008 19:06:02 8.2 C 5.86 g/m*3 8.2 C 0 km/h
1506 14-11-2008 19:18:02 8.1 C 5.74 g/m*3 8.1 C 0 km/h
1507 14-11-2008 19:30:03 8.1 C 5.82 g/m*3 8.1 C 0 km/h
1508 14-11-2008 19:42:02 8.1 C 5.82 g/m*3 8.1 C 0 km/h
1509 14-11-2008 19:54:01 8.1 C 5.82 g/m*3 8.1 C 0 km/h
1510 14-11-2008 20:06:02 8.1 C 5.82 g/m*3 8.1 C 0 km/h
1511 14-11-2008 20:18:01 8.1 C 5.91 g/m*3 8.1 C 0 km/h
1512 14-11-2008 20:30:01 8 C 5.95 g/m*3 8 C 0 km/h
1513 14-11-2008 20:42:02 8 C 5.95 g/m*3 8 C 0 km/h
1514 14-11-2008 20:54:02 8 C 5.95 g/m*3 8 C 0 km/h
1515 14-11-2008 21:06:02 8 C 5.95 g/m*3 8 C 0 km/h
1516 14-11-2008 21:18:02 8 C 5.95 g/m*3 8 C 0 km/h
1517 14-11-2008 21:30:02 8 C 5.95 g/m*3 8 C 0 km/h
1518 14-11-2008 21:42:02 7.9 C 6 g/m*3 7.9 C 0 km/h
1519 14-11-2008 21:54:02 7.9 C 6 g/m*3 7.9 C 0 km/h
1520 14-11-2008 22:06:01 8 C 5.95 g/m*3 8 C 0 km/h
1521 14-11-2008 22:18:02 8 C 5.95 g/m*3 8 C 0 km/h
1522 14-11-2008 22:30:02 8 C 5.95 g/m*3 8 C 0 km/h
1523 14-11-2008 22:43:01 8 C 6.04 g/m*3 8 C 0 km/h
1524 14-11-2008 22:55:01 8 C 6.12 g/m*3 8 C 0 km/h
1525 14-11-2008 23:07:01 8.1 C 6.16 g/m*3 8.1 C 0 km/h
Sensor: Nr:Datum:Temp:Abs-Feuchte:Windchill:Wind:
Aussen-T/F 1526 14-11-2008 23:19:01 8.2 C 6.28 g/m*3 8.2 C 0 km/h
1527 14-11-2008 23:31:01 8.2 C 6.28 g/m*3 8.2 C 0 km/h
1528 14-11-2008 23:43:01 8.1 C 6.24 g/m*3 8.1 C 0 km/h
1529 14-11-2008 23:55:01 8.1 C 6.32 g/m*3 8.1 C 0 km/h
1530 15-11-2008 00:07:01 8.1 C 6.32 g/m*3 8.1 C 0 km/h
1531 15-11-2008 00:19:01 8.1 C 6.32 g/m*3 8.1 C 0 km/h
1532 15-11-2008 00:31:01 8.1 C 6.41 g/m*3 8.1 C 0 km/h
1533 15-11-2008 00:43:02 8.1 C 6.41 g/m*3 8.1 C 0 km/h
1534 15-11-2008 00:55:02 8.1 C 6.49 g/m*3 8.1 C 0 km/h
1535 15-11-2008 01:07:02 8.1 C 6.49 g/m*3 8.1 C 0 km/h
1536 15-11-2008 01:19:02 8 C 6.45 g/m*3 8 C 0 km/h
1537 15-11-2008 01:31:02 8 C 6.53 g/m*3 8 C 0 km/h
1538 15-11-2008 01:43:02 8.1 C 6.57 g/m*3 8.1 C 0 km/h
1539 15-11-2008 01:55:02 8.1 C 6.57 g/m*3 8.1 C 0 km/h
1540 15-11-2008 02:07:02 8.2 C 6.62 g/m*3 8.2 C 0 km/h
1541 15-11-2008 02:19:02 8.2 C 6.62 g/m*3 8.2 C 0 km/h
1542 15-11-2008 02:31:02 8.2 C 6.62 g/m*3 8.2 C 0 km/h
1543 15-11-2008 02:43:02 8.2 C 6.62 g/m*3 8.2 C 0 km/h
1544 15-11-2008 02:55:02 8.2 C 6.62 g/m*3 8.2 C 0 km/h
1545 15-11-2008 03:07:02 8.2 C 6.62 g/m*3 8.2 C 0 km/h
1546 15-11-2008 03:19:02 8.2 C 6.62 g/m*3 8.2 C 0 km/h
1547 15-11-2008 03:31:02 8.2 C 6.62 g/m*3 8.2 C 0 km/h
1548 15-11-2008 03:43:02 8.2 C 6.7 g/m*3 8.2 C 0 km/h
1549 15-11-2008 03:55:02 8.2 C 6.7 g/m*3 8.2 C 0 km/h
1550 15-11-2008 04:07:02 8.2 C 6.7 g/m*3 8.2 C 0 km/h
Sensor: Nr:Datum:Temp:Abs-Feuchte:Windchill:Wind:
Aussen-T/F 1551 15-11-2008 04:19:02 8.2 C 6.7 g/m*3 8.2 C 0 km/h
1552 15-11-2008 04:31:03 8.3 C 6.83 g/m*3 8.3 C 0 km/h
1553 15-11-2008 04:43:03 8.4 C 6.87 g/m*3 8.4 C 0 km/h
1554 15-11-2008 04:55:03 8.5 C 6.92 g/m*3 8.5 C 0 km/h
1555 15-11-2008 05:07:03 8.5 C 6.92 g/m*3 8.5 C 0 km/h
1556 15-11-2008 05:19:03 8.6 C 6.96 g/m*3 8.6 C 0 km/h
1557 15-11-2008 05:31:03 8.7 C 7.01 g/m*3 8.7 C 0 km/h
1558 15-11-2008 05:43:03 8.8 C 6.96 g/m*3 8.8 C 0 km/h
1559 15-11-2008 05:55:03 8.8 C 6.96 g/m*3 8.8 C 0 km/h
1560 15-11-2008 06:07:03 8.8 C 6.96 g/m*3 8.8 C 0 km/h
1561 15-11-2008 06:19:03 8.8 C 6.96 g/m*3 8.8 C 0 km/h
1562 15-11-2008 06:31:03 8.8 C 6.96 g/m*3 8.8 C 0 km/h
1563 15-11-2008 06:43:03 8.9 C 7.01 g/m*3 8.9 C 0 km/h
1564 15-11-2008 06:55:03 8.9 C 7.01 g/m*3 8.9 C 0 km/h
1565 15-11-2008 07:07:03 9 C 6.96 g/m*3 9 C 0 km/h
1566 15-11-2008 07:19:03 9 C 6.96 g/m*3 9 C 0 km/h
1567 15-11-2008 07:31:03 9 C 6.96 g/m*3 9 C 0 km/h
1568 15-11-2008 07:43:03 9 C 7.05 g/m*3 9 C 0 km/h
1569 15-11-2008 07:55:03 9.4 C 7.15 g/m*3 9.4 C 0 km/h
1570 15-11-2008 08:07:03 9.1 C 7.01 g/m*3 9.1 C 0 km/h
1571 15-11-2008 08:19:01 9.3 C 7.1 g/m*3 9.3 C 0 km/h
1572 15-11-2008 08:31:01 9.3 C 7.1 g/m*3 9.3 C 0 km/h
1573 15-11-2008 08:43:01 9.3 C 7.01 g/m*3 9.3 C 0 km/h
1574 15-11-2008 08:55:02 9.3 C 7.01 g/m*3 9.3 C 0 km/h
1575 15-11-2008 09:07:02 9.4 C 7.05 g/m*3 9.4 C 0 km/h
Sensor: Nr:Datum:Temp:Abs-Feuchte:Windchill:Wind:
Aussen-T/F 1576 15-11-2008 09:19:03 9.5 C 7.1 g/m*3 9.5 C 0 km/h
1577 15-11-2008 09:31:02 9.5 C 7.01 g/m*3 9.5 C 0 km/h
1578 15-11-2008 09:43:02 9.6 C 7.05 g/m*3 9.6 C 0 km/h
1579 15-11-2008 09:55:02 9.6 C 7.05 g/m*3 9.6 C 0 km/h
1580 15-11-2008 10:07:02 9.6 C 7.05 g/m*3 9.6 C 0 km/h
1581 15-11-2008 10:19:02 9.7 C 7.01 g/m*3 9.7 C 0 km/h
1582 15-11-2008 10:31:02 9.7 C 7.01 g/m*3 9.7 C 0 km/h
1583 15-11-2008 10:43:03 9.8 C 7.05 g/m*3 9.8 C 0 km/h
1584 15-11-2008 10:55:01 9.8 C 7.05 g/m*3 9.8 C 0 km/h
1585 15-11-2008 11:07:02 9.8 C 7.05 g/m*3 9.8 C 0 km/h
1586 15-11-2008 11:19:01 9.9 C 7.1 g/m*3 9.9 C 0 km/h
1587 15-11-2008 11:31:02 10.1 C 7.09 g/m*3 10.1 C 0 km/h
1588 15-11-2008 11:43:02 10.2 C 7.04 g/m*3 10.2 C 0 km/h
1589 15-11-2008 11:55:02 10.4 C 7.13 g/m*3 10.4 C 0 km/h
1590 15-11-2008 12:07:02 10.4 C 7.04 g/m*3 10.4 C 0 km/h
1591 15-11-2008 12:19:02 10.6 C 7.03 g/m*3 10.6 C 0 km/h
1592 15-11-2008 12:31:02 10.6 C 7.03 g/m*3 10.6 C 0 km/h
1593 15-11-2008 12:43:02 10.7 C 7.07 g/m*3 10.7 C 0 km/h
1594 15-11-2008 12:55:02 10.8 C 7.02 g/m*3 10.8 C 0 km/h
1595 15-11-2008 13:07:01 11 C 6.91 g/m*3 11 C 0 km/h
1596 15-11-2008 13:19:02 11 C 6.81 g/m*3 11 C 0 km/h
1597 15-11-2008 13:31:02 11.1 C 6.85 g/m*3 11.1 C 0 km/h
1598 15-11-2008 13:43:02 11.2 C 6.79 g/m*3 11.2 C 0 km/h
1599 15-11-2008 13:55:02 11.3 C 6.83 g/m*3 11.3 C 0 km/h
1600 15-11-2008 14:07:02 11.3 C 6.83 g/m*3 11.3 C 0 km/h
Sensor: Nr:Datum:Temp:Abs-Feuchte:Windchill:Wind:
Aussen-T/F 1601 15-11-2008 14:19:02 11.3 C 6.83 g/m*3 11.3 C 0 km/h
1602 15-11-2008 14:31:02 11.4 C 6.88 g/m*3 11.4 C 0 km/h
1603 15-11-2008 14:43:02 11.4 C 6.88 g/m*3 11.4 C 0 km/h
1604 15-11-2008 14:55:02 11.4 C 6.88 g/m*3 11.4 C 0 km/h
1605 15-11-2008 15:07:02 11.3 C 6.94 g/m*3 11.3 C 0 km/h
1606 15-11-2008 15:19:02 11.3 C 6.94 g/m*3 11.3 C 0 km/h
1607 15-11-2008 15:31:02 11.3 C 6.94 g/m*3 11.3 C 0 km/h
1608 15-11-2008 15:43:02 11.2 C 6.99 g/m*3 11.2 C 0 km/h
1609 15-11-2008 15:55:02 11.2 C 6.99 g/m*3 11.2 C 0 km/h
1610 15-11-2008 16:07:02 11.1 C 7.05 g/m*3 11.1 C 0 km/h
1611 15-11-2008 16:19:02 11 C 7.01 g/m*3 11 C 0 km/h
1612 15-11-2008 16:31:02 11 C 7.11 g/m*3 11 C 0 km/h
1613 15-11-2008 16:43:02 11 C 7.11 g/m*3 11 C 0 km/h
1614 15-11-2008 16:55:01 11 C 7.11 g/m*3 11 C 0 km/h
1615 15-11-2008 17:07:02 10.9 C 7.16 g/m*3 10.9 C 0 km/h
1616 15-11-2008 17:19:02 10.9 C 7.26 g/m*3 10.9 C 0 km/h
1617 15-11-2008 17:31:02 10.9 C 7.26 g/m*3 10.9 C 0 km/h
1618 15-11-2008 17:43:02 10.8 C 7.22 g/m*3 10.8 C 0 km/h
1619 15-11-2008 17:55:02 10.8 C 7.31 g/m*3 10.8 C 0 km/h
1620 15-11-2008 18:07:03 10.8 C 7.31 g/m*3 10.8 C 0 km/h
1621 15-11-2008 18:19:02 10.7 C 7.27 g/m*3 10.7 C 0 km/h
1622 15-11-2008 18:31:03 10.8 C 7.31 g/m*3 10.8 C 0 km/h
1623 15-11-2008 18:43:03 10.7 C 7.27 g/m*3 10.7 C 0 km/h
1624 15-11-2008 18:55:02 10.7 C 7.27 g/m*3 10.7 C 0 km/h
1625 15-11-2008 19:07:02 10.7 C 7.27 g/m*3 10.7 C 0 km/h
Sensor: Nr:Datum:Temp:Abs-Feuchte:Windchill:Wind:
Aussen-T/F 1626 15-11-2008 19:19:02 10.7 C 7.27 g/m*3 10.7 C 0 km/h
1627 15-11-2008 19:31:02 10.7 C 7.27 g/m*3 10.7 C 0 km/h
1628 15-11-2008 19:43:02 10.7 C 7.27 g/m*3 10.7 C 0 km/h
1629 15-11-2008 19:55:01 10.7 C 7.37 g/m*3 10.7 C 0 km/h
1630 15-11-2008 20:07:02 10.7 C 7.37 g/m*3 10.7 C 0 km/h
1631 15-11-2008 20:19:01 10.6 C 7.32 g/m*3 10.6 C 0 km/h
1632 15-11-2008 20:31:01 10.6 C 7.32 g/m*3 10.6 C 0 km/h
1633 15-11-2008 20:43:01 10.6 C 7.42 g/m*3 10.6 C 0 km/h
1634 15-11-2008 20:55:02 10.6 C 7.42 g/m*3 10.6 C 0 km/h
1635 15-11-2008 21:07:02 10.5 C 7.47 g/m*3 10.5 C 0 km/h
1636 15-11-2008 21:19:02 10.5 C 7.47 g/m*3 10.5 C 0 km/h
1637 15-11-2008 21:31:02 10.5 C 7.47 g/m*3 10.5 C 0 km/h
1638 15-11-2008 21:43:02 10.5 C 7.57 g/m*3 10.5 C 0 km/h
1639 15-11-2008 21:55:02 10.5 C 7.57 g/m*3 10.5 C 0 km/h
1640 15-11-2008 22:07:01 10.5 C 7.57 g/m*3 10.5 C 0 km/h
1641 15-11-2008 22:19:02 10.5 C 7.57 g/m*3 10.5 C 0 km/h
1642 15-11-2008 22:31:01 10.5 C 7.57 g/m*3 10.5 C 0 km/h
1643 15-11-2008 22:43:01 10.4 C 7.52 g/m*3 10.4 C 0 km/h
1644 15-11-2008 22:55:02 10.4 C 7.61 g/m*3 10.4 C 0 km/h
1645 15-11-2008 23:07:01 10.4 C 7.61 g/m*3 10.4 C 0 km/h
1646 15-11-2008 23:20:02 10.4 C 7.61 g/m*3 10.4 C 0 km/h
1647 15-11-2008 23:32:02 10.4 C 7.61 g/m*3 10.4 C 0 km/h
1648 15-11-2008 23:44:02 10.4 C 7.61 g/m*3 10.4 C 0 km/h
1649 15-11-2008 23:56:03 10.3 C 7.66 g/m*3 10.3 C 0 km/h

Legende:
   Min
   Max


Maximal/Minimal-Werte vom 17.04.2019 - 19.05.2019

Sensor Min Max Avg
Temp
(Aussen-T/F)
2.2 °C
13-05-2019  06:50:00
26.6 °C
24-04-2019  17:05:00
11.51 °C

Die Daten stammen von einer Davis Vantage Pro 2 Wetter-Station und werden unter Linux mit der Software wview2wettercgi und aufbereitet. Alle Angaben erfolgen ohne Gewähr für ihre Vollständigkeit oder Richtigkeit.
Kontakt: Rainer Krienke krienke@uni-koblenz.de . Meine Webseiten an der Uni Koblenz oder privat.
Version: $Revision: 0.78 $